<?xml version="1.0" encoding="UTF-8" standalone="no" ?>
<gpx xmlns="http://www.topografix.com/GPX/1/1" xmlns:xsi="http://www.w3.org/2001/XMLSchema-instance" xsi:schemaLocation="http://www.topografix.com/GPX/1/1 http://www.topografix.com/GPX/1/1/gpx.xsd" version="1.1" creator="VisuGPX - https://www.visugpx.com">
  <metadata>
    <name>OMS CHENOVE Marche du vendredi 05 octobre 2012</name>
    <desc><![CDATA[De Corcelles à Chenove, via un petit détour au Mont Afrique]]></desc>
  </metadata>
  <trk>
    <name><![CDATA[OMS CHENOVE Marche du vendredi 05 octobre 2012_1]]></name>
    <trkseg>
      <trkpt lat="47.29328" lon="4.9392">
        <ele>439.481</ele>
        <time>2012-10-05T08:24:22Z</time>
      </trkpt>
      <trkpt lat="47.29302" lon="4.93902">
        <ele>485.299</ele>
        <time>2012-10-05T08:24:33Z</time>
      </trkpt>
      <trkpt lat="47.29293" lon="4.9388">
        <ele>484.983</ele>
        <time>2012-10-05T08:24:44Z</time>
      </trkpt>
      <trkpt lat="47.29287" lon="4.9386">
        <ele>482.516</ele>
        <time>2012-10-05T08:24:55Z</time>
      </trkpt>
      <trkpt lat="47.29278" lon="4.9384">
        <ele>483.346</ele>
        <time>2012-10-05T08:25:06Z</time>
      </trkpt>
      <trkpt lat="47.2927" lon="4.9382">
        <ele>484.293</ele>
        <time>2012-10-05T08:25:17Z</time>
      </trkpt>
      <trkpt lat="47.29267" lon="4.93798">
        <ele>484.617</ele>
        <time>2012-10-05T08:25:28Z</time>
      </trkpt>
      <trkpt lat="47.29263" lon="4.93783">
        <ele>485.031</ele>
        <time>2012-10-05T08:25:39Z</time>
      </trkpt>
      <trkpt lat="47.29255" lon="4.93767">
        <ele>487.255</ele>
        <time>2012-10-05T08:25:50Z</time>
      </trkpt>
      <trkpt lat="47.29248" lon="4.93745">
        <ele>487.38</ele>
        <time>2012-10-05T08:26:01Z</time>
      </trkpt>
      <trkpt lat="47.2924" lon="4.93723">
        <ele>487.802</ele>
        <time>2012-10-05T08:26:12Z</time>
      </trkpt>
      <trkpt lat="47.29232" lon="4.93703">
        <ele>486.366</ele>
        <time>2012-10-05T08:26:23Z</time>
      </trkpt>
      <trkpt lat="47.29223" lon="4.93685">
        <ele>485.038</ele>
        <time>2012-10-05T08:26:34Z</time>
      </trkpt>
      <trkpt lat="47.29217" lon="4.93665">
        <ele>483.856</ele>
        <time>2012-10-05T08:26:45Z</time>
      </trkpt>
      <trkpt lat="47.2921" lon="4.93643">
        <ele>482.834</ele>
        <time>2012-10-05T08:26:56Z</time>
      </trkpt>
      <trkpt lat="47.29203" lon="4.93622">
        <ele>482.18</ele>
        <time>2012-10-05T08:27:07Z</time>
      </trkpt>
      <trkpt lat="47.29197" lon="4.93603">
        <ele>482.747</ele>
        <time>2012-10-05T08:27:18Z</time>
      </trkpt>
      <trkpt lat="47.2919" lon="4.93585">
        <ele>483.765</ele>
        <time>2012-10-05T08:27:29Z</time>
      </trkpt>
      <trkpt lat="47.29182" lon="4.93567">
        <ele>482.608</ele>
        <time>2012-10-05T08:27:40Z</time>
      </trkpt>
      <trkpt lat="47.29168" lon="4.93547">
        <ele>479.84</ele>
        <time>2012-10-05T08:27:51Z</time>
      </trkpt>
      <trkpt lat="47.2916" lon="4.93525">
        <ele>478.839</ele>
        <time>2012-10-05T08:28:02Z</time>
      </trkpt>
      <trkpt lat="47.29155" lon="4.93505">
        <ele>478.804</ele>
        <time>2012-10-05T08:28:13Z</time>
      </trkpt>
      <trkpt lat="47.29148" lon="4.93483">
        <ele>477.936</ele>
        <time>2012-10-05T08:28:24Z</time>
      </trkpt>
      <trkpt lat="47.29142" lon="4.93462">
        <ele>478.304</ele>
        <time>2012-10-05T08:28:35Z</time>
      </trkpt>
      <trkpt lat="47.29137" lon="4.9344">
        <ele>477.325</ele>
        <time>2012-10-05T08:28:46Z</time>
      </trkpt>
      <trkpt lat="47.2913" lon="4.93418">
        <ele>479.522</ele>
        <time>2012-10-05T08:28:57Z</time>
      </trkpt>
      <trkpt lat="47.29125" lon="4.934">
        <ele>480.596</ele>
        <time>2012-10-05T08:29:08Z</time>
      </trkpt>
      <trkpt lat="47.29118" lon="4.93383">
        <ele>481.767</ele>
        <time>2012-10-05T08:29:19Z</time>
      </trkpt>
      <trkpt lat="47.29112" lon="4.9336">
        <ele>481.728</ele>
        <time>2012-10-05T08:29:30Z</time>
      </trkpt>
      <trkpt lat="47.2911" lon="4.93337">
        <ele>481.758</ele>
        <time>2012-10-05T08:29:41Z</time>
      </trkpt>
      <trkpt lat="47.29107" lon="4.93315">
        <ele>484.537</ele>
        <time>2012-10-05T08:29:52Z</time>
      </trkpt>
      <trkpt lat="47.29105" lon="4.93295">
        <ele>485.057</ele>
        <time>2012-10-05T08:30:03Z</time>
      </trkpt>
      <trkpt lat="47.29102" lon="4.93277">
        <ele>485.221</ele>
        <time>2012-10-05T08:30:14Z</time>
      </trkpt>
      <trkpt lat="47.29095" lon="4.93255">
        <ele>485.442</ele>
        <time>2012-10-05T08:30:25Z</time>
      </trkpt>
      <trkpt lat="47.29088" lon="4.93235">
        <ele>486.977</ele>
        <time>2012-10-05T08:30:36Z</time>
      </trkpt>
      <trkpt lat="47.29082" lon="4.93217">
        <ele>491.587</ele>
        <time>2012-10-05T08:30:47Z</time>
      </trkpt>
      <trkpt lat="47.29073" lon="4.93197">
        <ele>492.556</ele>
        <time>2012-10-05T08:30:58Z</time>
      </trkpt>
      <trkpt lat="47.29063" lon="4.93178">
        <ele>494.352</ele>
        <time>2012-10-05T08:31:09Z</time>
      </trkpt>
      <trkpt lat="47.29055" lon="4.93162">
        <ele>496.26</ele>
        <time>2012-10-05T08:31:20Z</time>
      </trkpt>
      <trkpt lat="47.29047" lon="4.93143">
        <ele>497.997</ele>
        <time>2012-10-05T08:31:31Z</time>
      </trkpt>
      <trkpt lat="47.29038" lon="4.9313">
        <ele>502.125</ele>
        <time>2012-10-05T08:31:42Z</time>
      </trkpt>
      <trkpt lat="47.2903" lon="4.93113">
        <ele>503.45</ele>
        <time>2012-10-05T08:31:53Z</time>
      </trkpt>
      <trkpt lat="47.29022" lon="4.9309">
        <ele>502.665</ele>
        <time>2012-10-05T08:32:04Z</time>
      </trkpt>
      <trkpt lat="47.29015" lon="4.93072">
        <ele>503.503</ele>
        <time>2012-10-05T08:32:15Z</time>
      </trkpt>
      <trkpt lat="47.2901" lon="4.93055">
        <ele>507.254</ele>
        <time>2012-10-05T08:32:26Z</time>
      </trkpt>
      <trkpt lat="47.29007" lon="4.93037">
        <ele>510.213</ele>
        <time>2012-10-05T08:32:37Z</time>
      </trkpt>
      <trkpt lat="47.29003" lon="4.9302">
        <ele>512.129</ele>
        <time>2012-10-05T08:32:48Z</time>
      </trkpt>
      <trkpt lat="47.28997" lon="4.93005">
        <ele>505.6</ele>
        <time>2012-10-05T08:32:59Z</time>
      </trkpt>
      <trkpt lat="47.2899" lon="4.92988">
        <ele>514.274</ele>
        <time>2012-10-05T08:33:10Z</time>
      </trkpt>
      <trkpt lat="47.28985" lon="4.92975">
        <ele>509.2</ele>
        <time>2012-10-05T08:33:21Z</time>
      </trkpt>
      <trkpt lat="47.2898" lon="4.92965">
        <ele>510.5</ele>
        <time>2012-10-05T08:33:32Z</time>
      </trkpt>
      <trkpt lat="47.28978" lon="4.92957">
        <ele>511.4</ele>
        <time>2012-10-05T08:33:43Z</time>
      </trkpt>
      <trkpt lat="47.28978" lon="4.92945">
        <ele>512.6</ele>
        <time>2012-10-05T08:33:54Z</time>
      </trkpt>
      <trkpt lat="47.28978" lon="4.92928">
        <ele>523.704</ele>
        <time>2012-10-05T08:34:05Z</time>
      </trkpt>
      <trkpt lat="47.28972" lon="4.92923">
        <ele>515.1</ele>
        <time>2012-10-05T08:34:16Z</time>
      </trkpt>
      <trkpt lat="47.28968" lon="4.9292">
        <ele>515.7</ele>
        <time>2012-10-05T08:34:27Z</time>
      </trkpt>
      <trkpt lat="47.28965" lon="4.9291">
        <ele>517.9</ele>
        <time>2012-10-05T08:34:38Z</time>
      </trkpt>
      <trkpt lat="47.28965" lon="4.92895">
        <ele>521.7</ele>
        <time>2012-10-05T08:34:49Z</time>
      </trkpt>
      <trkpt lat="47.28955" lon="4.92882">
        <ele>524.1</ele>
        <time>2012-10-05T08:35:00Z</time>
      </trkpt>
      <trkpt lat="47.28948" lon="4.9287">
        <ele>526.3</ele>
        <time>2012-10-05T08:35:11Z</time>
      </trkpt>
      <trkpt lat="47.2894" lon="4.92857">
        <ele>528.9</ele>
        <time>2012-10-05T08:35:22Z</time>
      </trkpt>
      <trkpt lat="47.28935" lon="4.9285">
        <ele>530.3</ele>
        <time>2012-10-05T08:35:33Z</time>
      </trkpt>
      <trkpt lat="47.28933" lon="4.92847">
        <ele>531</ele>
        <time>2012-10-05T08:35:44Z</time>
      </trkpt>
      <trkpt lat="47.28928" lon="4.92843">
        <ele>531.5</ele>
        <time>2012-10-05T08:35:55Z</time>
      </trkpt>
      <trkpt lat="47.28923" lon="4.92842">
        <ele>531.6</ele>
        <time>2012-10-05T08:36:06Z</time>
      </trkpt>
      <trkpt lat="47.28918" lon="4.92838">
        <ele>532</ele>
        <time>2012-10-05T08:36:17Z</time>
      </trkpt>
      <trkpt lat="47.28913" lon="4.92835">
        <ele>532.9</ele>
        <time>2012-10-05T08:36:28Z</time>
      </trkpt>
      <trkpt lat="47.28908" lon="4.92832">
        <ele>534</ele>
        <time>2012-10-05T08:36:39Z</time>
      </trkpt>
      <trkpt lat="47.28903" lon="4.92827">
        <ele>535.5</ele>
        <time>2012-10-05T08:36:50Z</time>
      </trkpt>
      <trkpt lat="47.28895" lon="4.92818">
        <ele>537.6</ele>
        <time>2012-10-05T08:37:01Z</time>
      </trkpt>
      <trkpt lat="47.28885" lon="4.92812">
        <ele>539.6</ele>
        <time>2012-10-05T08:37:12Z</time>
      </trkpt>
      <trkpt lat="47.28875" lon="4.92807">
        <ele>541.9</ele>
        <time>2012-10-05T08:37:23Z</time>
      </trkpt>
      <trkpt lat="47.2887" lon="4.92802">
        <ele>544.2</ele>
        <time>2012-10-05T08:37:34Z</time>
      </trkpt>
      <trkpt lat="47.28862" lon="4.92798">
        <ele>546.5</ele>
        <time>2012-10-05T08:37:45Z</time>
      </trkpt>
      <trkpt lat="47.28852" lon="4.92793">
        <ele>551.5</ele>
        <time>2012-10-05T08:37:56Z</time>
      </trkpt>
      <trkpt lat="47.28848" lon="4.9279">
        <ele>553.7</ele>
        <time>2012-10-05T08:38:07Z</time>
      </trkpt>
      <trkpt lat="47.28845" lon="4.92785">
        <ele>556.3</ele>
        <time>2012-10-05T08:38:18Z</time>
      </trkpt>
      <trkpt lat="47.28843" lon="4.92783">
        <ele>557.4</ele>
        <time>2012-10-05T08:38:29Z</time>
      </trkpt>
      <trkpt lat="47.28842" lon="4.92782">
        <ele>574.171</ele>
        <time>2012-10-05T08:38:40Z</time>
      </trkpt>
      <trkpt lat="47.2884" lon="4.92782">
        <ele>558.9</ele>
        <time>2012-10-05T08:38:51Z</time>
      </trkpt>
      <trkpt lat="47.28838" lon="4.92782">
        <ele>559.4</ele>
        <time>2012-10-05T08:39:02Z</time>
      </trkpt>
      <trkpt lat="47.28837" lon="4.9278">
        <ele>560.4</ele>
        <time>2012-10-05T08:39:13Z</time>
      </trkpt>
      <trkpt lat="47.28837" lon="4.92778">
        <ele>560.9</ele>
        <time>2012-10-05T08:39:24Z</time>
      </trkpt>
      <trkpt lat="47.28835" lon="4.92777">
        <ele>561.8</ele>
        <time>2012-10-05T08:39:35Z</time>
      </trkpt>
      <trkpt lat="47.28832" lon="4.92777">
        <ele>562.5</ele>
        <time>2012-10-05T08:39:46Z</time>
      </trkpt>
      <trkpt lat="47.28818" lon="4.92782">
        <ele>563.8</ele>
        <time>2012-10-05T08:39:57Z</time>
      </trkpt>
      <trkpt lat="47.28798" lon="4.9279">
        <ele>568.7</ele>
        <time>2012-10-05T08:40:08Z</time>
      </trkpt>
      <trkpt lat="47.28797" lon="4.92803">
        <ele>570.1</ele>
        <time>2012-10-05T08:40:19Z</time>
      </trkpt>
      <trkpt lat="47.28793" lon="4.92823">
        <ele>573.2</ele>
        <time>2012-10-05T08:40:30Z</time>
      </trkpt>
      <trkpt lat="47.28793" lon="4.9283">
        <ele>573.9</ele>
        <time>2012-10-05T08:40:41Z</time>
      </trkpt>
      <trkpt lat="47.28798" lon="4.92842">
        <ele>574.1</ele>
        <time>2012-10-05T08:40:52Z</time>
      </trkpt>
      <trkpt lat="47.28802" lon="4.92858">
        <ele>574.3</ele>
        <time>2012-10-05T08:41:03Z</time>
      </trkpt>
      <trkpt lat="47.28808" lon="4.9288">
        <ele>574.4</ele>
        <time>2012-10-05T08:41:14Z</time>
      </trkpt>
      <trkpt lat="47.28815" lon="4.929">
        <ele>574.6</ele>
        <time>2012-10-05T08:41:25Z</time>
      </trkpt>
      <trkpt lat="47.28822" lon="4.92917">
        <ele>595.261</ele>
        <time>2012-10-05T08:41:36Z</time>
      </trkpt>
      <trkpt lat="47.2882" lon="4.92932">
        <ele>574.7</ele>
        <time>2012-10-05T08:41:47Z</time>
      </trkpt>
      <trkpt lat="47.2882" lon="4.92945">
        <ele>574.9</ele>
        <time>2012-10-05T08:41:58Z</time>
      </trkpt>
      <trkpt lat="47.2882" lon="4.9296">
        <ele>574.7</ele>
        <time>2012-10-05T08:42:09Z</time>
      </trkpt>
      <trkpt lat="47.28822" lon="4.9298">
        <ele>574.4</ele>
        <time>2012-10-05T08:42:20Z</time>
      </trkpt>
      <trkpt lat="47.28823" lon="4.93005">
        <ele>574.7</ele>
        <time>2012-10-05T08:42:31Z</time>
      </trkpt>
      <trkpt lat="47.28823" lon="4.9303">
        <ele>576.1</ele>
        <time>2012-10-05T08:42:42Z</time>
      </trkpt>
      <trkpt lat="47.28827" lon="4.93052">
        <ele>575.7</ele>
        <time>2012-10-05T08:42:53Z</time>
      </trkpt>
      <trkpt lat="47.28825" lon="4.93073">
        <ele>576.5</ele>
        <time>2012-10-05T08:43:04Z</time>
      </trkpt>
      <trkpt lat="47.28825" lon="4.93095">
        <ele>576.9</ele>
        <time>2012-10-05T08:43:15Z</time>
      </trkpt>
      <trkpt lat="47.28823" lon="4.93113">
        <ele>577</ele>
        <time>2012-10-05T08:43:26Z</time>
      </trkpt>
      <trkpt lat="47.28823" lon="4.93138">
        <ele>576.5</ele>
        <time>2012-10-05T08:43:37Z</time>
      </trkpt>
      <trkpt lat="47.28823" lon="4.93157">
        <ele>576.2</ele>
        <time>2012-10-05T08:43:48Z</time>
      </trkpt>
      <trkpt lat="47.28825" lon="4.93173">
        <ele>575.7</ele>
        <time>2012-10-05T08:43:59Z</time>
      </trkpt>
      <trkpt lat="47.28827" lon="4.93185">
        <ele>575.1</ele>
        <time>2012-10-05T08:44:10Z</time>
      </trkpt>
      <trkpt lat="47.28827" lon="4.932">
        <ele>574.7</ele>
        <time>2012-10-05T08:44:21Z</time>
      </trkpt>
      <trkpt lat="47.28827" lon="4.93212">
        <ele>574.7</ele>
        <time>2012-10-05T08:44:32Z</time>
      </trkpt>
      <trkpt lat="47.28827" lon="4.93232">
        <ele>574.4</ele>
        <time>2012-10-05T08:44:43Z</time>
      </trkpt>
      <trkpt lat="47.2883" lon="4.93252">
        <ele>573.4</ele>
        <time>2012-10-05T08:44:54Z</time>
      </trkpt>
      <trkpt lat="47.28828" lon="4.93278">
        <ele>573.3</ele>
        <time>2012-10-05T08:45:05Z</time>
      </trkpt>
      <trkpt lat="47.28828" lon="4.93303">
        <ele>572.4</ele>
        <time>2012-10-05T08:45:16Z</time>
      </trkpt>
      <trkpt lat="47.2883" lon="4.93327">
        <ele>571.5</ele>
        <time>2012-10-05T08:45:27Z</time>
      </trkpt>
      <trkpt lat="47.2883" lon="4.93347">
        <ele>570.3</ele>
        <time>2012-10-05T08:45:38Z</time>
      </trkpt>
      <trkpt lat="47.2883" lon="4.93368">
        <ele>568.7</ele>
        <time>2012-10-05T08:45:49Z</time>
      </trkpt>
      <trkpt lat="47.28827" lon="4.93387">
        <ele>567.6</ele>
        <time>2012-10-05T08:46:00Z</time>
      </trkpt>
      <trkpt lat="47.28822" lon="4.93395">
        <ele>567.5</ele>
        <time>2012-10-05T08:46:11Z</time>
      </trkpt>
      <trkpt lat="47.28817" lon="4.93405">
        <ele>567.3</ele>
        <time>2012-10-05T08:46:22Z</time>
      </trkpt>
      <trkpt lat="47.28808" lon="4.9341">
        <ele>567.4</ele>
        <time>2012-10-05T08:46:33Z</time>
      </trkpt>
      <trkpt lat="47.28798" lon="4.93413">
        <ele>567.5</ele>
        <time>2012-10-05T08:46:44Z</time>
      </trkpt>
      <trkpt lat="47.28785" lon="4.93415">
        <ele>567.9</ele>
        <time>2012-10-05T08:46:55Z</time>
      </trkpt>
      <trkpt lat="47.28778" lon="4.93415">
        <ele>568.2</ele>
        <time>2012-10-05T08:47:06Z</time>
      </trkpt>
      <trkpt lat="47.28765" lon="4.93407">
        <ele>569.5</ele>
        <time>2012-10-05T08:47:17Z</time>
      </trkpt>
      <trkpt lat="47.28747" lon="4.93398">
        <ele>571</ele>
        <time>2012-10-05T08:47:28Z</time>
      </trkpt>
      <trkpt lat="47.28735" lon="4.93393">
        <ele>571.6</ele>
        <time>2012-10-05T08:47:39Z</time>
      </trkpt>
      <trkpt lat="47.2872" lon="4.93392">
        <ele>571.8</ele>
        <time>2012-10-05T08:47:50Z</time>
      </trkpt>
      <trkpt lat="47.28705" lon="4.93385">
        <ele>572.4</ele>
        <time>2012-10-05T08:48:01Z</time>
      </trkpt>
      <trkpt lat="47.28683" lon="4.9338">
        <ele>572.8</ele>
        <time>2012-10-05T08:48:12Z</time>
      </trkpt>
      <trkpt lat="47.28667" lon="4.93377">
        <ele>572.9</ele>
        <time>2012-10-05T08:48:23Z</time>
      </trkpt>
      <trkpt lat="47.28655" lon="4.9337">
        <ele>573.2</ele>
        <time>2012-10-05T08:48:34Z</time>
      </trkpt>
      <trkpt lat="47.28643" lon="4.93368">
        <ele>573.3</ele>
        <time>2012-10-05T08:48:45Z</time>
      </trkpt>
      <trkpt lat="47.28625" lon="4.93368">
        <ele>572.4</ele>
        <time>2012-10-05T08:48:56Z</time>
      </trkpt>
      <trkpt lat="47.28605" lon="4.93365">
        <ele>571.5</ele>
        <time>2012-10-05T08:49:07Z</time>
      </trkpt>
      <trkpt lat="47.2859" lon="4.93363">
        <ele>571</ele>
        <time>2012-10-05T08:49:18Z</time>
      </trkpt>
      <trkpt lat="47.28575" lon="4.93362">
        <ele>570.3</ele>
        <time>2012-10-05T08:49:29Z</time>
      </trkpt>
      <trkpt lat="47.2856" lon="4.93365">
        <ele>569</ele>
        <time>2012-10-05T08:49:40Z</time>
      </trkpt>
      <trkpt lat="47.28547" lon="4.93362">
        <ele>568.6</ele>
        <time>2012-10-05T08:49:51Z</time>
      </trkpt>
      <trkpt lat="47.28525" lon="4.93362">
        <ele>567.8</ele>
        <time>2012-10-05T08:50:02Z</time>
      </trkpt>
      <trkpt lat="47.28512" lon="4.9336">
        <ele>566.9</ele>
        <time>2012-10-05T08:50:13Z</time>
      </trkpt>
      <trkpt lat="47.28495" lon="4.93358">
        <ele>566</ele>
        <time>2012-10-05T08:50:24Z</time>
      </trkpt>
      <trkpt lat="47.28478" lon="4.93358">
        <ele>565.5</ele>
        <time>2012-10-05T08:50:35Z</time>
      </trkpt>
      <trkpt lat="47.28463" lon="4.93358">
        <ele>564.7</ele>
        <time>2012-10-05T08:50:46Z</time>
      </trkpt>
      <trkpt lat="47.28442" lon="4.93365">
        <ele>562.7</ele>
        <time>2012-10-05T08:50:57Z</time>
      </trkpt>
      <trkpt lat="47.28425" lon="4.93382">
        <ele>561.5</ele>
        <time>2012-10-05T08:51:08Z</time>
      </trkpt>
      <trkpt lat="47.28413" lon="4.93393">
        <ele>560.7</ele>
        <time>2012-10-05T08:51:19Z</time>
      </trkpt>
      <trkpt lat="47.28403" lon="4.93402">
        <ele>560.3</ele>
        <time>2012-10-05T08:51:30Z</time>
      </trkpt>
      <trkpt lat="47.28392" lon="4.93405">
        <ele>560.7</ele>
        <time>2012-10-05T08:51:41Z</time>
      </trkpt>
      <trkpt lat="47.28378" lon="4.93407">
        <ele>561.1</ele>
        <time>2012-10-05T08:51:52Z</time>
      </trkpt>
      <trkpt lat="47.28372" lon="4.9341">
        <ele>561.1</ele>
        <time>2012-10-05T08:52:03Z</time>
      </trkpt>
      <trkpt lat="47.28358" lon="4.93418">
        <ele>560.7</ele>
        <time>2012-10-05T08:52:14Z</time>
      </trkpt>
      <trkpt lat="47.2835" lon="4.93423">
        <ele>559.8</ele>
        <time>2012-10-05T08:52:25Z</time>
      </trkpt>
      <trkpt lat="47.28335" lon="4.9344">
        <ele>556.8</ele>
        <time>2012-10-05T08:52:36Z</time>
      </trkpt>
      <trkpt lat="47.28327" lon="4.93448">
        <ele>554.5</ele>
        <time>2012-10-05T08:52:47Z</time>
      </trkpt>
      <trkpt lat="47.2832" lon="4.93458">
        <ele>551.5</ele>
        <time>2012-10-05T08:52:58Z</time>
      </trkpt>
      <trkpt lat="47.28313" lon="4.93468">
        <ele>548.5</ele>
        <time>2012-10-05T08:53:09Z</time>
      </trkpt>
      <trkpt lat="47.28308" lon="4.93477">
        <ele>546.4</ele>
        <time>2012-10-05T08:53:20Z</time>
      </trkpt>
      <trkpt lat="47.28297" lon="4.93492">
        <ele>541.8</ele>
        <time>2012-10-05T08:53:31Z</time>
      </trkpt>
      <trkpt lat="47.28283" lon="4.93502">
        <ele>536.9</ele>
        <time>2012-10-05T08:53:42Z</time>
      </trkpt>
      <trkpt lat="47.28272" lon="4.93513">
        <ele>532.5</ele>
        <time>2012-10-05T08:53:53Z</time>
      </trkpt>
      <trkpt lat="47.28263" lon="4.93523">
        <ele>529.2</ele>
        <time>2012-10-05T08:54:04Z</time>
      </trkpt>
      <trkpt lat="47.28253" lon="4.93535">
        <ele>525.5</ele>
        <time>2012-10-05T08:54:15Z</time>
      </trkpt>
      <trkpt lat="47.2824" lon="4.93543">
        <ele>522.7</ele>
        <time>2012-10-05T08:54:26Z</time>
      </trkpt>
      <trkpt lat="47.28228" lon="4.93552">
        <ele>520.2</ele>
        <time>2012-10-05T08:54:37Z</time>
      </trkpt>
      <trkpt lat="47.28213" lon="4.93562">
        <ele>517.5</ele>
        <time>2012-10-05T08:54:48Z</time>
      </trkpt>
      <trkpt lat="47.28195" lon="4.93572">
        <ele>514.7</ele>
        <time>2012-10-05T08:54:59Z</time>
      </trkpt>
      <trkpt lat="47.28178" lon="4.93583">
        <ele>512.4</ele>
        <time>2012-10-05T08:55:10Z</time>
      </trkpt>
      <trkpt lat="47.2816" lon="4.93597">
        <ele>510.2</ele>
        <time>2012-10-05T08:55:21Z</time>
      </trkpt>
      <trkpt lat="47.28143" lon="4.93607">
        <ele>508.5</ele>
        <time>2012-10-05T08:55:32Z</time>
      </trkpt>
      <trkpt lat="47.28127" lon="4.93615">
        <ele>507.3</ele>
        <time>2012-10-05T08:55:43Z</time>
      </trkpt>
      <trkpt lat="47.28113" lon="4.93623">
        <ele>506.2</ele>
        <time>2012-10-05T08:55:54Z</time>
      </trkpt>
      <trkpt lat="47.28095" lon="4.93635">
        <ele>504.6</ele>
        <time>2012-10-05T08:56:05Z</time>
      </trkpt>
      <trkpt lat="47.28077" lon="4.93645">
        <ele>502.9</ele>
        <time>2012-10-05T08:56:16Z</time>
      </trkpt>
      <trkpt lat="47.28068" lon="4.93663">
        <ele>500.3</ele>
        <time>2012-10-05T08:56:27Z</time>
      </trkpt>
      <trkpt lat="47.28082" lon="4.93678">
        <ele>500</ele>
        <time>2012-10-05T08:56:38Z</time>
      </trkpt>
      <trkpt lat="47.28095" lon="4.93688">
        <ele>500</ele>
        <time>2012-10-05T08:56:49Z</time>
      </trkpt>
      <trkpt lat="47.28108" lon="4.937">
        <ele>499.5</ele>
        <time>2012-10-05T08:57:00Z</time>
      </trkpt>
      <trkpt lat="47.28123" lon="4.93712">
        <ele>499.6</ele>
        <time>2012-10-05T08:57:11Z</time>
      </trkpt>
      <trkpt lat="47.28137" lon="4.93725">
        <ele>499.5</ele>
        <time>2012-10-05T08:57:22Z</time>
      </trkpt>
      <trkpt lat="47.2815" lon="4.9374">
        <ele>498.7</ele>
        <time>2012-10-05T08:57:33Z</time>
      </trkpt>
      <trkpt lat="47.28162" lon="4.93753">
        <ele>498.4</ele>
        <time>2012-10-05T08:57:44Z</time>
      </trkpt>
      <trkpt lat="47.28175" lon="4.93768">
        <ele>498.2</ele>
        <time>2012-10-05T08:57:55Z</time>
      </trkpt>
      <trkpt lat="47.28188" lon="4.93785">
        <ele>498</ele>
        <time>2012-10-05T08:58:06Z</time>
      </trkpt>
      <trkpt lat="47.28202" lon="4.93798">
        <ele>497.5</ele>
        <time>2012-10-05T08:58:17Z</time>
      </trkpt>
      <trkpt lat="47.28217" lon="4.93812">
        <ele>496.7</ele>
        <time>2012-10-05T08:58:28Z</time>
      </trkpt>
      <trkpt lat="47.28228" lon="4.93827">
        <ele>496.2</ele>
        <time>2012-10-05T08:58:39Z</time>
      </trkpt>
      <trkpt lat="47.28242" lon="4.93838">
        <ele>495.8</ele>
        <time>2012-10-05T08:58:50Z</time>
      </trkpt>
      <trkpt lat="47.28253" lon="4.93857">
        <ele>495.2</ele>
        <time>2012-10-05T08:59:01Z</time>
      </trkpt>
      <trkpt lat="47.28267" lon="4.9387">
        <ele>494.7</ele>
        <time>2012-10-05T08:59:12Z</time>
      </trkpt>
      <trkpt lat="47.28272" lon="4.93887">
        <ele>494.1</ele>
        <time>2012-10-05T08:59:23Z</time>
      </trkpt>
      <trkpt lat="47.28265" lon="4.93897">
        <ele>493.7</ele>
        <time>2012-10-05T08:59:34Z</time>
      </trkpt>
      <trkpt lat="47.28262" lon="4.93905">
        <ele>493.4</ele>
        <time>2012-10-05T08:59:45Z</time>
      </trkpt>
      <trkpt lat="47.28255" lon="4.93913">
        <ele>493.1</ele>
        <time>2012-10-05T08:59:56Z</time>
      </trkpt>
      <trkpt lat="47.28245" lon="4.93922">
        <ele>492.5</ele>
        <time>2012-10-05T09:00:07Z</time>
      </trkpt>
      <trkpt lat="47.28232" lon="4.93923">
        <ele>492</ele>
        <time>2012-10-05T09:00:18Z</time>
      </trkpt>
      <trkpt lat="47.28217" lon="4.93917">
        <ele>491.6</ele>
        <time>2012-10-05T09:00:29Z</time>
      </trkpt>
      <trkpt lat="47.28207" lon="4.93907">
        <ele>491.6</ele>
        <time>2012-10-05T09:00:40Z</time>
      </trkpt>
      <trkpt lat="47.28188" lon="4.939">
        <ele>490.5</ele>
        <time>2012-10-05T09:00:51Z</time>
      </trkpt>
      <trkpt lat="47.28182" lon="4.9389">
        <ele>490.5</ele>
        <time>2012-10-05T09:01:02Z</time>
      </trkpt>
      <trkpt lat="47.28167" lon="4.93887">
        <ele>489.2</ele>
        <time>2012-10-05T09:01:13Z</time>
      </trkpt>
      <trkpt lat="47.28153" lon="4.93882">
        <ele>488.7</ele>
        <time>2012-10-05T09:01:24Z</time>
      </trkpt>
      <trkpt lat="47.28138" lon="4.93875">
        <ele>488</ele>
        <time>2012-10-05T09:01:35Z</time>
      </trkpt>
      <trkpt lat="47.28123" lon="4.9387">
        <ele>487.2</ele>
        <time>2012-10-05T09:01:46Z</time>
      </trkpt>
      <trkpt lat="47.28108" lon="4.93863">
        <ele>486.6</ele>
        <time>2012-10-05T09:01:57Z</time>
      </trkpt>
      <trkpt lat="47.28093" lon="4.9386">
        <ele>485.8</ele>
        <time>2012-10-05T09:02:08Z</time>
      </trkpt>
      <trkpt lat="47.28075" lon="4.9386">
        <ele>484.5</ele>
        <time>2012-10-05T09:02:19Z</time>
      </trkpt>
      <trkpt lat="47.28067" lon="4.93853">
        <ele>484.4</ele>
        <time>2012-10-05T09:02:30Z</time>
      </trkpt>
      <trkpt lat="47.28055" lon="4.93848">
        <ele>483.9</ele>
        <time>2012-10-05T09:02:41Z</time>
      </trkpt>
      <trkpt lat="47.2804" lon="4.93845">
        <ele>483</ele>
        <time>2012-10-05T09:02:52Z</time>
      </trkpt>
      <trkpt lat="47.28023" lon="4.93837">
        <ele>482.4</ele>
        <time>2012-10-05T09:03:03Z</time>
      </trkpt>
      <trkpt lat="47.28013" lon="4.93828">
        <ele>482.4</ele>
        <time>2012-10-05T09:03:14Z</time>
      </trkpt>
      <trkpt lat="47.28002" lon="4.9382">
        <ele>482.5</ele>
        <time>2012-10-05T09:03:25Z</time>
      </trkpt>
      <trkpt lat="47.27975" lon="4.93815">
        <ele>480.6</ele>
        <time>2012-10-05T09:03:36Z</time>
      </trkpt>
      <trkpt lat="47.27958" lon="4.93808">
        <ele>479.3</ele>
        <time>2012-10-05T09:03:47Z</time>
      </trkpt>
      <trkpt lat="47.27952" lon="4.93807">
        <ele>478.7</ele>
        <time>2012-10-05T09:03:58Z</time>
      </trkpt>
      <trkpt lat="47.2794" lon="4.93798">
        <ele>478.4</ele>
        <time>2012-10-05T09:04:09Z</time>
      </trkpt>
      <trkpt lat="47.27928" lon="4.93793">
        <ele>477.6</ele>
        <time>2012-10-05T09:04:20Z</time>
      </trkpt>
      <trkpt lat="47.27915" lon="4.93787">
        <ele>476.5</ele>
        <time>2012-10-05T09:04:31Z</time>
      </trkpt>
      <trkpt lat="47.27913" lon="4.93787">
        <ele>476.4</ele>
        <time>2012-10-05T09:04:42Z</time>
      </trkpt>
      <trkpt lat="47.27903" lon="4.93778">
        <ele>476</ele>
        <time>2012-10-05T09:04:53Z</time>
      </trkpt>
      <trkpt lat="47.27883" lon="4.93765">
        <ele>475.8</ele>
        <time>2012-10-05T09:05:04Z</time>
      </trkpt>
      <trkpt lat="47.27857" lon="4.9377">
        <ele>473.1</ele>
        <time>2012-10-05T09:05:15Z</time>
      </trkpt>
      <trkpt lat="47.27837" lon="4.9378">
        <ele>472</ele>
        <time>2012-10-05T09:05:26Z</time>
      </trkpt>
      <trkpt lat="47.27837" lon="4.93797">
        <ele>471.3</ele>
        <time>2012-10-05T09:05:37Z</time>
      </trkpt>
      <trkpt lat="47.27837" lon="4.93812">
        <ele>470.7</ele>
        <time>2012-10-05T09:05:48Z</time>
      </trkpt>
      <trkpt lat="47.27832" lon="4.93838">
        <ele>470.4</ele>
        <time>2012-10-05T09:05:59Z</time>
      </trkpt>
      <trkpt lat="47.27833" lon="4.93855">
        <ele>470.8</ele>
        <time>2012-10-05T09:06:10Z</time>
      </trkpt>
      <trkpt lat="47.27842" lon="4.93858">
        <ele>469.8</ele>
        <time>2012-10-05T09:06:21Z</time>
      </trkpt>
      <trkpt lat="47.27853" lon="4.93873">
        <ele>468.1</ele>
        <time>2012-10-05T09:06:32Z</time>
      </trkpt>
      <trkpt lat="47.27863" lon="4.93883">
        <ele>466.6</ele>
        <time>2012-10-05T09:06:43Z</time>
      </trkpt>
      <trkpt lat="47.27873" lon="4.93897">
        <ele>464.6</ele>
        <time>2012-10-05T09:06:54Z</time>
      </trkpt>
      <trkpt lat="47.27887" lon="4.9392">
        <ele>461.4</ele>
        <time>2012-10-05T09:07:05Z</time>
      </trkpt>
      <trkpt lat="47.27892" lon="4.9393">
        <ele>462.2</ele>
        <time>2012-10-05T09:07:16Z</time>
      </trkpt>
      <trkpt lat="47.27898" lon="4.93948">
        <ele>462.4</ele>
        <time>2012-10-05T09:07:27Z</time>
      </trkpt>
      <trkpt lat="47.27907" lon="4.93967">
        <ele>459.5</ele>
        <time>2012-10-05T09:07:38Z</time>
      </trkpt>
      <trkpt lat="47.27918" lon="4.93992">
        <ele>456.9</ele>
        <time>2012-10-05T09:07:49Z</time>
      </trkpt>
      <trkpt lat="47.27927" lon="4.94007">
        <ele>457.5</ele>
        <time>2012-10-05T09:08:00Z</time>
      </trkpt>
      <trkpt lat="47.27932" lon="4.94027">
        <ele>459.4</ele>
        <time>2012-10-05T09:08:11Z</time>
      </trkpt>
      <trkpt lat="47.27945" lon="4.9404">
        <ele>456.5</ele>
        <time>2012-10-05T09:08:22Z</time>
      </trkpt>
      <trkpt lat="47.27955" lon="4.94057">
        <ele>456.4</ele>
        <time>2012-10-05T09:08:33Z</time>
      </trkpt>
      <trkpt lat="47.27972" lon="4.94067">
        <ele>451.4</ele>
        <time>2012-10-05T09:08:44Z</time>
      </trkpt>
      <trkpt lat="47.27983" lon="4.94085">
        <ele>451.6</ele>
        <time>2012-10-05T09:08:55Z</time>
      </trkpt>
      <trkpt lat="47.2799" lon="4.94098">
        <ele>451.3</ele>
        <time>2012-10-05T09:09:06Z</time>
      </trkpt>
      <trkpt lat="47.27995" lon="4.94117">
        <ele>450.6</ele>
        <time>2012-10-05T09:09:17Z</time>
      </trkpt>
      <trkpt lat="47.28005" lon="4.94135">
        <ele>450</ele>
        <time>2012-10-05T09:09:28Z</time>
      </trkpt>
      <trkpt lat="47.28015" lon="4.94148">
        <ele>449.5</ele>
        <time>2012-10-05T09:09:39Z</time>
      </trkpt>
      <trkpt lat="47.28017" lon="4.94165">
        <ele>450.1</ele>
        <time>2012-10-05T09:09:50Z</time>
      </trkpt>
      <trkpt lat="47.28023" lon="4.94187">
        <ele>448.6</ele>
        <time>2012-10-05T09:10:01Z</time>
      </trkpt>
      <trkpt lat="47.28037" lon="4.94213">
        <ele>447.2</ele>
        <time>2012-10-05T09:10:12Z</time>
      </trkpt>
      <trkpt lat="47.28038" lon="4.94228">
        <ele>447.6</ele>
        <time>2012-10-05T09:10:23Z</time>
      </trkpt>
      <trkpt lat="47.28045" lon="4.94245">
        <ele>447.1</ele>
        <time>2012-10-05T09:10:34Z</time>
      </trkpt>
      <trkpt lat="47.28055" lon="4.94265">
        <ele>444.7</ele>
        <time>2012-10-05T09:10:45Z</time>
      </trkpt>
      <trkpt lat="47.28062" lon="4.94283">
        <ele>445.3</ele>
        <time>2012-10-05T09:10:56Z</time>
      </trkpt>
      <trkpt lat="47.28068" lon="4.94292">
        <ele>444.9</ele>
        <time>2012-10-05T09:11:07Z</time>
      </trkpt>
      <trkpt lat="47.28073" lon="4.9431">
        <ele>444.1</ele>
        <time>2012-10-05T09:11:18Z</time>
      </trkpt>
      <trkpt lat="47.28077" lon="4.94328">
        <ele>443.5</ele>
        <time>2012-10-05T09:11:29Z</time>
      </trkpt>
      <trkpt lat="47.2809" lon="4.94342">
        <ele>441.6</ele>
        <time>2012-10-05T09:11:40Z</time>
      </trkpt>
      <trkpt lat="47.28097" lon="4.94357">
        <ele>440.8</ele>
        <time>2012-10-05T09:11:51Z</time>
      </trkpt>
      <trkpt lat="47.281" lon="4.94372">
        <ele>439.5</ele>
        <time>2012-10-05T09:12:02Z</time>
      </trkpt>
      <trkpt lat="47.2811" lon="4.9438">
        <ele>435.7</ele>
        <time>2012-10-05T09:12:13Z</time>
      </trkpt>
      <trkpt lat="47.28113" lon="4.9439">
        <ele>434.9</ele>
        <time>2012-10-05T09:12:24Z</time>
      </trkpt>
      <trkpt lat="47.2812" lon="4.94403">
        <ele>436.2</ele>
        <time>2012-10-05T09:12:35Z</time>
      </trkpt>
      <trkpt lat="47.28122" lon="4.9441">
        <ele>435.9</ele>
        <time>2012-10-05T09:12:46Z</time>
      </trkpt>
      <trkpt lat="47.28123" lon="4.94422">
        <ele>434.8</ele>
        <time>2012-10-05T09:12:57Z</time>
      </trkpt>
      <trkpt lat="47.2813" lon="4.9443">
        <ele>433.2</ele>
        <time>2012-10-05T09:13:08Z</time>
      </trkpt>
      <trkpt lat="47.28133" lon="4.94453">
        <ele>427.2</ele>
        <time>2012-10-05T09:13:19Z</time>
      </trkpt>
      <trkpt lat="47.2814" lon="4.9447">
        <ele>421.5</ele>
        <time>2012-10-05T09:13:30Z</time>
      </trkpt>
      <trkpt lat="47.28145" lon="4.94482">
        <ele>423.5</ele>
        <time>2012-10-05T09:13:41Z</time>
      </trkpt>
      <trkpt lat="47.28148" lon="4.94503">
        <ele>422</ele>
        <time>2012-10-05T09:13:52Z</time>
      </trkpt>
      <trkpt lat="47.28147" lon="4.94527">
        <ele>417.9</ele>
        <time>2012-10-05T09:14:03Z</time>
      </trkpt>
      <trkpt lat="47.2815" lon="4.94535">
        <ele>418.6</ele>
        <time>2012-10-05T09:14:14Z</time>
      </trkpt>
      <trkpt lat="47.28155" lon="4.94548">
        <ele>418.3</ele>
        <time>2012-10-05T09:14:25Z</time>
      </trkpt>
      <trkpt lat="47.28163" lon="4.94562">
        <ele>416.2</ele>
        <time>2012-10-05T09:14:36Z</time>
      </trkpt>
      <trkpt lat="47.2817" lon="4.94585">
        <ele>414.5</ele>
        <time>2012-10-05T09:14:47Z</time>
      </trkpt>
      <trkpt lat="47.28177" lon="4.94602">
        <ele>416.7</ele>
        <time>2012-10-05T09:14:58Z</time>
      </trkpt>
      <trkpt lat="47.28178" lon="4.94617">
        <ele>414.9</ele>
        <time>2012-10-05T09:15:09Z</time>
      </trkpt>
      <trkpt lat="47.28183" lon="4.94633">
        <ele>414.8</ele>
        <time>2012-10-05T09:15:20Z</time>
      </trkpt>
      <trkpt lat="47.28185" lon="4.94655">
        <ele>411.8</ele>
        <time>2012-10-05T09:15:31Z</time>
      </trkpt>
      <trkpt lat="47.2819" lon="4.94672">
        <ele>411.6</ele>
        <time>2012-10-05T09:15:42Z</time>
      </trkpt>
      <trkpt lat="47.28197" lon="4.94703">
        <ele>409.4</ele>
        <time>2012-10-05T09:15:53Z</time>
      </trkpt>
      <trkpt lat="47.28198" lon="4.9473">
        <ele>431.848</ele>
        <time>2012-10-05T09:16:04Z</time>
      </trkpt>
      <trkpt lat="47.28192" lon="4.94753">
        <ele>400.9</ele>
        <time>2012-10-05T09:16:15Z</time>
      </trkpt>
      <trkpt lat="47.28192" lon="4.94768">
        <ele>399.3</ele>
        <time>2012-10-05T09:16:26Z</time>
      </trkpt>
      <trkpt lat="47.28202" lon="4.9479">
        <ele>403.1</ele>
        <time>2012-10-05T09:16:37Z</time>
      </trkpt>
      <trkpt lat="47.28203" lon="4.94807">
        <ele>403</ele>
        <time>2012-10-05T09:16:48Z</time>
      </trkpt>
      <trkpt lat="47.28203" lon="4.94828">
        <ele>401.4</ele>
        <time>2012-10-05T09:16:59Z</time>
      </trkpt>
      <trkpt lat="47.28208" lon="4.94847">
        <ele>403.5</ele>
        <time>2012-10-05T09:17:10Z</time>
      </trkpt>
      <trkpt lat="47.28208" lon="4.94862">
        <ele>402.5</ele>
        <time>2012-10-05T09:17:21Z</time>
      </trkpt>
      <trkpt lat="47.28207" lon="4.94883">
        <ele>401.4</ele>
        <time>2012-10-05T09:17:32Z</time>
      </trkpt>
      <trkpt lat="47.28208" lon="4.94893">
        <ele>402.7</ele>
        <time>2012-10-05T09:17:43Z</time>
      </trkpt>
      <trkpt lat="47.28205" lon="4.94908">
        <ele>400.9</ele>
        <time>2012-10-05T09:17:54Z</time>
      </trkpt>
      <trkpt lat="47.28198" lon="4.94933">
        <ele>397.3</ele>
        <time>2012-10-05T09:18:05Z</time>
      </trkpt>
      <trkpt lat="47.28198" lon="4.94952">
        <ele>398</ele>
        <time>2012-10-05T09:18:16Z</time>
      </trkpt>
      <trkpt lat="47.28198" lon="4.94963">
        <ele>398.4</ele>
        <time>2012-10-05T09:18:27Z</time>
      </trkpt>
      <trkpt lat="47.28198" lon="4.9498">
        <ele>399.4</ele>
        <time>2012-10-05T09:18:38Z</time>
      </trkpt>
      <trkpt lat="47.28195" lon="4.94993">
        <ele>397.9</ele>
        <time>2012-10-05T09:18:49Z</time>
      </trkpt>
      <trkpt lat="47.28198" lon="4.95013">
        <ele>401.8</ele>
        <time>2012-10-05T09:19:00Z</time>
      </trkpt>
      <trkpt lat="47.28198" lon="4.95052">
        <ele>404.5</ele>
        <time>2012-10-05T09:19:11Z</time>
      </trkpt>
      <trkpt lat="47.2819" lon="4.95073">
        <ele>400.1</ele>
        <time>2012-10-05T09:19:22Z</time>
      </trkpt>
      <trkpt lat="47.28185" lon="4.95095">
        <ele>398</ele>
        <time>2012-10-05T09:19:33Z</time>
      </trkpt>
      <trkpt lat="47.28183" lon="4.95108">
        <ele>397.8</ele>
        <time>2012-10-05T09:19:44Z</time>
      </trkpt>
      <trkpt lat="47.28183" lon="4.95128">
        <ele>398.9</ele>
        <time>2012-10-05T09:19:55Z</time>
      </trkpt>
      <trkpt lat="47.28183" lon="4.95142">
        <ele>399.6</ele>
        <time>2012-10-05T09:20:06Z</time>
      </trkpt>
      <trkpt lat="47.28182" lon="4.9517">
        <ele>399.6</ele>
        <time>2012-10-05T09:20:17Z</time>
      </trkpt>
      <trkpt lat="47.2818" lon="4.952">
        <ele>396.5</ele>
        <time>2012-10-05T09:20:28Z</time>
      </trkpt>
      <trkpt lat="47.28177" lon="4.95243">
        <ele>389.5</ele>
        <time>2012-10-05T09:20:39Z</time>
      </trkpt>
      <trkpt lat="47.28168" lon="4.9528">
        <ele>381.4</ele>
        <time>2012-10-05T09:20:50Z</time>
      </trkpt>
      <trkpt lat="47.28173" lon="4.95307">
        <ele>380.2</ele>
        <time>2012-10-05T09:21:01Z</time>
      </trkpt>
      <trkpt lat="47.28172" lon="4.95335">
        <ele>375.6</ele>
        <time>2012-10-05T09:21:12Z</time>
      </trkpt>
      <trkpt lat="47.28172" lon="4.9536">
        <ele>371.8</ele>
        <time>2012-10-05T09:21:23Z</time>
      </trkpt>
      <trkpt lat="47.28178" lon="4.95367">
        <ele>373</ele>
        <time>2012-10-05T09:21:34Z</time>
      </trkpt>
      <trkpt lat="47.28187" lon="4.95375">
        <ele>374.5</ele>
        <time>2012-10-05T09:21:45Z</time>
      </trkpt>
      <trkpt lat="47.28202" lon="4.9539">
        <ele>376.9</ele>
        <time>2012-10-05T09:21:56Z</time>
      </trkpt>
      <trkpt lat="47.28225" lon="4.95388">
        <ele>384.2</ele>
        <time>2012-10-05T09:22:07Z</time>
      </trkpt>
      <trkpt lat="47.28225" lon="4.95407">
        <ele>380.8</ele>
        <time>2012-10-05T09:22:18Z</time>
      </trkpt>
      <trkpt lat="47.28223" lon="4.95437">
        <ele>374.8</ele>
        <time>2012-10-05T09:22:29Z</time>
      </trkpt>
      <trkpt lat="47.28232" lon="4.95458">
        <ele>373.7</ele>
        <time>2012-10-05T09:22:40Z</time>
      </trkpt>
      <trkpt lat="47.28235" lon="4.95485">
        <ele>369.8</ele>
        <time>2012-10-05T09:22:51Z</time>
      </trkpt>
      <trkpt lat="47.28252" lon="4.95507">
        <ele>389.359</ele>
        <time>2012-10-05T09:23:02Z</time>
      </trkpt>
      <trkpt lat="47.28265" lon="4.95513">
        <ele>374.5</ele>
        <time>2012-10-05T09:23:13Z</time>
      </trkpt>
      <trkpt lat="47.2827" lon="4.95535">
        <ele>371.6</ele>
        <time>2012-10-05T09:23:24Z</time>
      </trkpt>
      <trkpt lat="47.28275" lon="4.95553">
        <ele>369.5</ele>
        <time>2012-10-05T09:23:35Z</time>
      </trkpt>
      <trkpt lat="47.28292" lon="4.95567">
        <ele>372.1</ele>
        <time>2012-10-05T09:23:46Z</time>
      </trkpt>
      <trkpt lat="47.283" lon="4.95587">
        <ele>371.1</ele>
        <time>2012-10-05T09:23:57Z</time>
      </trkpt>
      <trkpt lat="47.28318" lon="4.956">
        <ele>375</ele>
        <time>2012-10-05T09:24:08Z</time>
      </trkpt>
      <trkpt lat="47.28323" lon="4.95612">
        <ele>374.3</ele>
        <time>2012-10-05T09:24:19Z</time>
      </trkpt>
      <trkpt lat="47.28327" lon="4.9564">
        <ele>369.1</ele>
        <time>2012-10-05T09:24:30Z</time>
      </trkpt>
      <trkpt lat="47.28337" lon="4.95657">
        <ele>369.3</ele>
        <time>2012-10-05T09:24:41Z</time>
      </trkpt>
      <trkpt lat="47.2834" lon="4.95687">
        <ele>364.3</ele>
        <time>2012-10-05T09:24:52Z</time>
      </trkpt>
      <trkpt lat="47.2835" lon="4.95708">
        <ele>363.8</ele>
        <time>2012-10-05T09:25:03Z</time>
      </trkpt>
      <trkpt lat="47.28362" lon="4.9572">
        <ele>365.7</ele>
        <time>2012-10-05T09:25:14Z</time>
      </trkpt>
      <trkpt lat="47.28367" lon="4.95737">
        <ele>363.7</ele>
        <time>2012-10-05T09:25:25Z</time>
      </trkpt>
      <trkpt lat="47.28373" lon="4.95757">
        <ele>361.9</ele>
        <time>2012-10-05T09:25:36Z</time>
      </trkpt>
      <trkpt lat="47.28378" lon="4.95773">
        <ele>360.7</ele>
        <time>2012-10-05T09:25:47Z</time>
      </trkpt>
      <trkpt lat="47.28388" lon="4.95792">
        <ele>360.3</ele>
        <time>2012-10-05T09:25:58Z</time>
      </trkpt>
      <trkpt lat="47.28398" lon="4.95812">
        <ele>359.6</ele>
        <time>2012-10-05T09:26:09Z</time>
      </trkpt>
      <trkpt lat="47.28405" lon="4.95832">
        <ele>357.9</ele>
        <time>2012-10-05T09:26:20Z</time>
      </trkpt>
      <trkpt lat="47.28422" lon="4.95838">
        <ele>362</ele>
        <time>2012-10-05T09:26:31Z</time>
      </trkpt>
      <trkpt lat="47.28428" lon="4.95857">
        <ele>361.5</ele>
        <time>2012-10-05T09:26:42Z</time>
      </trkpt>
      <trkpt lat="47.28433" lon="4.95877">
        <ele>360.2</ele>
        <time>2012-10-05T09:26:53Z</time>
      </trkpt>
      <trkpt lat="47.28448" lon="4.9589">
        <ele>363.4</ele>
        <time>2012-10-05T09:27:04Z</time>
      </trkpt>
      <trkpt lat="47.2846" lon="4.95907">
        <ele>366</ele>
        <time>2012-10-05T09:27:15Z</time>
      </trkpt>
      <trkpt lat="47.28467" lon="4.95925">
        <ele>366.4</ele>
        <time>2012-10-05T09:27:26Z</time>
      </trkpt>
      <trkpt lat="47.2848" lon="4.95945">
        <ele>369.8</ele>
        <time>2012-10-05T09:27:37Z</time>
      </trkpt>
      <trkpt lat="47.28475" lon="4.95983">
        <ele>362.2</ele>
        <time>2012-10-05T09:27:48Z</time>
      </trkpt>
      <trkpt lat="47.28482" lon="4.95992">
        <ele>364.9</ele>
        <time>2012-10-05T09:27:59Z</time>
      </trkpt>
      <trkpt lat="47.28473" lon="4.9603">
        <ele>356.5</ele>
        <time>2012-10-05T09:28:10Z</time>
      </trkpt>
      <trkpt lat="47.28472" lon="4.96057">
        <ele>353.8</ele>
        <time>2012-10-05T09:28:21Z</time>
      </trkpt>
      <trkpt lat="47.2847" lon="4.96072">
        <ele>352.6</ele>
        <time>2012-10-05T09:28:32Z</time>
      </trkpt>
      <trkpt lat="47.28467" lon="4.96092">
        <ele>350.7</ele>
        <time>2012-10-05T09:28:43Z</time>
      </trkpt>
      <trkpt lat="47.28463" lon="4.96117">
        <ele>349</ele>
        <time>2012-10-05T09:28:54Z</time>
      </trkpt>
      <trkpt lat="47.28455" lon="4.96143">
        <ele>346.1</ele>
        <time>2012-10-05T09:29:05Z</time>
      </trkpt>
      <trkpt lat="47.28452" lon="4.96165">
        <ele>344.9</ele>
        <time>2012-10-05T09:29:16Z</time>
      </trkpt>
      <trkpt lat="47.28445" lon="4.96183">
        <ele>341.9</ele>
        <time>2012-10-05T09:29:27Z</time>
      </trkpt>
      <trkpt lat="47.28445" lon="4.9619">
        <ele>369.826</ele>
        <time>2012-10-05T09:29:38Z</time>
      </trkpt>
      <trkpt lat="47.2843" lon="4.96222">
        <ele>341.3</ele>
        <time>2012-10-05T09:29:49Z</time>
      </trkpt>
      <trkpt lat="47.28435" lon="4.96243">
        <ele>345.4</ele>
        <time>2012-10-05T09:30:00Z</time>
      </trkpt>
      <trkpt lat="47.28435" lon="4.96258">
        <ele>347</ele>
        <time>2012-10-05T09:30:11Z</time>
      </trkpt>
      <trkpt lat="47.28437" lon="4.9628">
        <ele>350</ele>
        <time>2012-10-05T09:30:22Z</time>
      </trkpt>
      <trkpt lat="47.28445" lon="4.96288">
        <ele>355.1</ele>
        <time>2012-10-05T09:30:33Z</time>
      </trkpt>
      <trkpt lat="47.28443" lon="4.96312">
        <ele>355.4</ele>
        <time>2012-10-05T09:30:44Z</time>
      </trkpt>
      <trkpt lat="47.28445" lon="4.96333">
        <ele>356.3</ele>
        <time>2012-10-05T09:30:55Z</time>
      </trkpt>
      <trkpt lat="47.28448" lon="4.9634">
        <ele>358.1</ele>
        <time>2012-10-05T09:31:06Z</time>
      </trkpt>
      <trkpt lat="47.28443" lon="4.96375">
        <ele>354.9</ele>
        <time>2012-10-05T09:31:17Z</time>
      </trkpt>
      <trkpt lat="47.28432" lon="4.96425">
        <ele>345.7</ele>
        <time>2012-10-05T09:31:28Z</time>
      </trkpt>
      <trkpt lat="47.28432" lon="4.96443">
        <ele>344.1</ele>
        <time>2012-10-05T09:31:39Z</time>
      </trkpt>
      <trkpt lat="47.28432" lon="4.9645">
        <ele>343.3</ele>
        <time>2012-10-05T09:31:50Z</time>
      </trkpt>
      <trkpt lat="47.28432" lon="4.9645">
        <ele>343.3</ele>
        <time>2012-10-05T09:32:01Z</time>
      </trkpt>
      <trkpt lat="47.28432" lon="4.9645">
        <ele>343.3</ele>
        <time>2012-10-05T09:32:12Z</time>
      </trkpt>
      <trkpt lat="47.28432" lon="4.9645">
        <ele>343.3</ele>
        <time>2012-10-05T09:32:23Z</time>
      </trkpt>
      <trkpt lat="47.28432" lon="4.9645">
        <ele>343.3</ele>
        <time>2012-10-05T09:32:34Z</time>
      </trkpt>
      <trkpt lat="47.28432" lon="4.9645">
        <ele>343.3</ele>
        <time>2012-10-05T09:32:45Z</time>
      </trkpt>
      <trkpt lat="47.28432" lon="4.9645">
        <ele>343.3</ele>
        <time>2012-10-05T09:32:56Z</time>
      </trkpt>
      <trkpt lat="47.28432" lon="4.9645">
        <ele>343.3</ele>
        <time>2012-10-05T09:33:07Z</time>
      </trkpt>
      <trkpt lat="47.28432" lon="4.9645">
        <ele>343.3</ele>
        <time>2012-10-05T09:33:18Z</time>
      </trkpt>
      <trkpt lat="47.28432" lon="4.9645">
        <ele>343.3</ele>
        <time>2012-10-05T09:33:29Z</time>
      </trkpt>
      <trkpt lat="47.28432" lon="4.9645">
        <ele>343.3</ele>
        <time>2012-10-05T09:33:40Z</time>
      </trkpt>
      <trkpt lat="47.28432" lon="4.9645">
        <ele>343.3</ele>
        <time>2012-10-05T09:33:51Z</time>
      </trkpt>
      <trkpt lat="47.28432" lon="4.9645">
        <ele>343.3</ele>
        <time>2012-10-05T09:34:02Z</time>
      </trkpt>
      <trkpt lat="47.28432" lon="4.9645">
        <ele>343.3</ele>
        <time>2012-10-05T09:34:13Z</time>
      </trkpt>
      <trkpt lat="47.28432" lon="4.9645">
        <ele>343.3</ele>
        <time>2012-10-05T09:34:24Z</time>
      </trkpt>
      <trkpt lat="47.28432" lon="4.9645">
        <ele>343.3</ele>
        <time>2012-10-05T09:34:35Z</time>
      </trkpt>
      <trkpt lat="47.28432" lon="4.96452">
        <ele>343.1</ele>
        <time>2012-10-05T09:34:46Z</time>
      </trkpt>
      <trkpt lat="47.28432" lon="4.96452">
        <ele>360.055</ele>
        <time>2012-10-05T09:34:57Z</time>
      </trkpt>
      <trkpt lat="47.28432" lon="4.96452">
        <ele>343.1</ele>
        <time>2012-10-05T09:35:08Z</time>
      </trkpt>
      <trkpt lat="47.28435" lon="4.96453">
        <ele>344.3</ele>
        <time>2012-10-05T09:35:19Z</time>
      </trkpt>
      <trkpt lat="47.28435" lon="4.96458">
        <ele>343.6</ele>
        <time>2012-10-05T09:35:30Z</time>
      </trkpt>
      <trkpt lat="47.28437" lon="4.9646">
        <ele>344</ele>
        <time>2012-10-05T09:35:41Z</time>
      </trkpt>
      <trkpt lat="47.28437" lon="4.96465">
        <ele>343.3</ele>
        <time>2012-10-05T09:35:52Z</time>
      </trkpt>
      <trkpt lat="47.28438" lon="4.96465">
        <ele>343.9</ele>
        <time>2012-10-05T09:36:03Z</time>
      </trkpt>
      <trkpt lat="47.28438" lon="4.96467">
        <ele>343.7</ele>
        <time>2012-10-05T09:36:14Z</time>
      </trkpt>
      <trkpt lat="47.28435" lon="4.9647">
        <ele>341.9</ele>
        <time>2012-10-05T09:36:25Z</time>
      </trkpt>
      <trkpt lat="47.2844" lon="4.96473">
        <ele>343.2</ele>
        <time>2012-10-05T09:36:36Z</time>
      </trkpt>
      <trkpt lat="47.28443" lon="4.96475">
        <ele>344.2</ele>
        <time>2012-10-05T09:36:47Z</time>
      </trkpt>
      <trkpt lat="47.2845" lon="4.96475">
        <ele>346.2</ele>
        <time>2012-10-05T09:36:58Z</time>
      </trkpt>
      <trkpt lat="47.28458" lon="4.9647">
        <ele>349.6</ele>
        <time>2012-10-05T09:37:09Z</time>
      </trkpt>
      <trkpt lat="47.28467" lon="4.96465">
        <ele>353.5</ele>
        <time>2012-10-05T09:37:20Z</time>
      </trkpt>
      <trkpt lat="47.28468" lon="4.9647">
        <ele>352.6</ele>
        <time>2012-10-05T09:37:31Z</time>
      </trkpt>
      <trkpt lat="47.28468" lon="4.96473">
        <ele>351.8</ele>
        <time>2012-10-05T09:37:42Z</time>
      </trkpt>
      <trkpt lat="47.28472" lon="4.96473">
        <ele>352.8</ele>
        <time>2012-10-05T09:37:53Z</time>
      </trkpt>
      <trkpt lat="47.28485" lon="4.96468">
        <ele>357</ele>
        <time>2012-10-05T09:38:04Z</time>
      </trkpt>
      <trkpt lat="47.28487" lon="4.96468">
        <ele>357.3</ele>
        <time>2012-10-05T09:38:15Z</time>
      </trkpt>
      <trkpt lat="47.2849" lon="4.9647">
        <ele>357.5</ele>
        <time>2012-10-05T09:38:26Z</time>
      </trkpt>
      <trkpt lat="47.28505" lon="4.96467">
        <ele>361.6</ele>
        <time>2012-10-05T09:38:37Z</time>
      </trkpt>
      <trkpt lat="47.28507" lon="4.96467">
        <ele>361.9</ele>
        <time>2012-10-05T09:38:48Z</time>
      </trkpt>
      <trkpt lat="47.28522" lon="4.96462">
        <ele>365.8</ele>
        <time>2012-10-05T09:38:59Z</time>
      </trkpt>
      <trkpt lat="47.28525" lon="4.96463">
        <ele>366.1</ele>
        <time>2012-10-05T09:39:10Z</time>
      </trkpt>
      <trkpt lat="47.28535" lon="4.96463">
        <ele>368.2</ele>
        <time>2012-10-05T09:39:21Z</time>
      </trkpt>
      <trkpt lat="47.28537" lon="4.96473">
        <ele>367.5</ele>
        <time>2012-10-05T09:39:32Z</time>
      </trkpt>
      <trkpt lat="47.28543" lon="4.96472">
        <ele>369</ele>
        <time>2012-10-05T09:39:43Z</time>
      </trkpt>
      <trkpt lat="47.2855" lon="4.96472">
        <ele>370.7</ele>
        <time>2012-10-05T09:39:54Z</time>
      </trkpt>
      <trkpt lat="47.28557" lon="4.96475">
        <ele>372.9</ele>
        <time>2012-10-05T09:40:05Z</time>
      </trkpt>
      <trkpt lat="47.2857" lon="4.96475">
        <ele>377.611</ele>
        <time>2012-10-05T09:40:16Z</time>
      </trkpt>
      <trkpt lat="47.28578" lon="4.96473">
        <ele>378</ele>
        <time>2012-10-05T09:40:27Z</time>
      </trkpt>
      <trkpt lat="47.28587" lon="4.9647">
        <ele>379.8</ele>
        <time>2012-10-05T09:40:38Z</time>
      </trkpt>
      <trkpt lat="47.28592" lon="4.96475">
        <ele>381.5</ele>
        <time>2012-10-05T09:40:49Z</time>
      </trkpt>
      <trkpt lat="47.28607" lon="4.96475">
        <ele>384.7</ele>
        <time>2012-10-05T09:41:00Z</time>
      </trkpt>
      <trkpt lat="47.28617" lon="4.96477">
        <ele>387.4</ele>
        <time>2012-10-05T09:41:11Z</time>
      </trkpt>
      <trkpt lat="47.28623" lon="4.96483">
        <ele>390.2</ele>
        <time>2012-10-05T09:41:22Z</time>
      </trkpt>
      <trkpt lat="47.2864" lon="4.96488">
        <ele>394</ele>
        <time>2012-10-05T09:41:33Z</time>
      </trkpt>
      <trkpt lat="47.2864" lon="4.9649">
        <ele>394.2</ele>
        <time>2012-10-05T09:41:44Z</time>
      </trkpt>
      <trkpt lat="47.28647" lon="4.96488">
        <ele>395.5</ele>
        <time>2012-10-05T09:41:55Z</time>
      </trkpt>
      <trkpt lat="47.2865" lon="4.96488">
        <ele>396.2</ele>
        <time>2012-10-05T09:42:06Z</time>
      </trkpt>
      <trkpt lat="47.2865" lon="4.96487">
        <ele>396.1</ele>
        <time>2012-10-05T09:42:17Z</time>
      </trkpt>
      <trkpt lat="47.28657" lon="4.96483">
        <ele>397.6</ele>
        <time>2012-10-05T09:42:28Z</time>
      </trkpt>
      <trkpt lat="47.2866" lon="4.9648">
        <ele>398.3</ele>
        <time>2012-10-05T09:42:39Z</time>
      </trkpt>
      <trkpt lat="47.28662" lon="4.96478">
        <ele>398.7</ele>
        <time>2012-10-05T09:42:50Z</time>
      </trkpt>
      <trkpt lat="47.28663" lon="4.96477">
        <ele>399.1</ele>
        <time>2012-10-05T09:43:01Z</time>
      </trkpt>
      <trkpt lat="47.28665" lon="4.96475">
        <ele>399.5</ele>
        <time>2012-10-05T09:43:12Z</time>
      </trkpt>
      <trkpt lat="47.2867" lon="4.96472">
        <ele>401.5</ele>
        <time>2012-10-05T09:43:23Z</time>
      </trkpt>
      <trkpt lat="47.28677" lon="4.96462">
        <ele>406.6</ele>
        <time>2012-10-05T09:43:34Z</time>
      </trkpt>
      <trkpt lat="47.2868" lon="4.96457">
        <ele>409.2</ele>
        <time>2012-10-05T09:43:45Z</time>
      </trkpt>
      <trkpt lat="47.28693" lon="4.96445">
        <ele>403.377</ele>
        <time>2012-10-05T09:43:56Z</time>
      </trkpt>
      <trkpt lat="47.28705" lon="4.96443">
        <ele>421.7</ele>
        <time>2012-10-05T09:44:07Z</time>
      </trkpt>
      <trkpt lat="47.28722" lon="4.96432">
        <ele>427.8</ele>
        <time>2012-10-05T09:44:18Z</time>
      </trkpt>
      <trkpt lat="47.28722" lon="4.96432">
        <ele>427.8</ele>
        <time>2012-10-05T09:44:29Z</time>
      </trkpt>
      <trkpt lat="47.2872" lon="4.96432">
        <ele>427.5</ele>
        <time>2012-10-05T09:44:40Z</time>
      </trkpt>
      <trkpt lat="47.28722" lon="4.96432">
        <ele>427.8</ele>
        <time>2012-10-05T09:44:51Z</time>
      </trkpt>
      <trkpt lat="47.28723" lon="4.96432">
        <ele>428</ele>
        <time>2012-10-05T09:45:02Z</time>
      </trkpt>
      <trkpt lat="47.28732" lon="4.96437">
        <ele>428</ele>
        <time>2012-10-05T09:45:13Z</time>
      </trkpt>
      <trkpt lat="47.28735" lon="4.96455">
        <ele>427.5</ele>
        <time>2012-10-05T09:45:24Z</time>
      </trkpt>
      <trkpt lat="47.28733" lon="4.9647">
        <ele>426.7</ele>
        <time>2012-10-05T09:45:35Z</time>
      </trkpt>
      <trkpt lat="47.28738" lon="4.96483">
        <ele>427.3</ele>
        <time>2012-10-05T09:45:46Z</time>
      </trkpt>
      <trkpt lat="47.28738" lon="4.96508">
        <ele>427.2</ele>
        <time>2012-10-05T09:45:57Z</time>
      </trkpt>
      <trkpt lat="47.28738" lon="4.96527">
        <ele>427.2</ele>
        <time>2012-10-05T09:46:08Z</time>
      </trkpt>
      <trkpt lat="47.28738" lon="4.96542">
        <ele>427.6</ele>
        <time>2012-10-05T09:46:19Z</time>
      </trkpt>
      <trkpt lat="47.28737" lon="4.96557">
        <ele>428</ele>
        <time>2012-10-05T09:46:30Z</time>
      </trkpt>
      <trkpt lat="47.28745" lon="4.96563">
        <ele>427.9</ele>
        <time>2012-10-05T09:46:41Z</time>
      </trkpt>
      <trkpt lat="47.28747" lon="4.96572">
        <ele>427.9</ele>
        <time>2012-10-05T09:46:52Z</time>
      </trkpt>
      <trkpt lat="47.28743" lon="4.96583">
        <ele>427.8</ele>
        <time>2012-10-05T09:47:03Z</time>
      </trkpt>
      <trkpt lat="47.28747" lon="4.96595">
        <ele>427.9</ele>
        <time>2012-10-05T09:47:14Z</time>
      </trkpt>
      <trkpt lat="47.28757" lon="4.96598">
        <ele>428.2</ele>
        <time>2012-10-05T09:47:25Z</time>
      </trkpt>
      <trkpt lat="47.28765" lon="4.96608">
        <ele>428.5</ele>
        <time>2012-10-05T09:47:36Z</time>
      </trkpt>
      <trkpt lat="47.28778" lon="4.9661">
        <ele>429</ele>
        <time>2012-10-05T09:47:47Z</time>
      </trkpt>
      <trkpt lat="47.28777" lon="4.96623">
        <ele>428.5</ele>
        <time>2012-10-05T09:47:58Z</time>
      </trkpt>
      <trkpt lat="47.2878" lon="4.96628">
        <ele>428.3</ele>
        <time>2012-10-05T09:48:09Z</time>
      </trkpt>
      <trkpt lat="47.28792" lon="4.96638">
        <ele>428</ele>
        <time>2012-10-05T09:48:20Z</time>
      </trkpt>
      <trkpt lat="47.28805" lon="4.96648">
        <ele>428</ele>
        <time>2012-10-05T09:48:31Z</time>
      </trkpt>
      <trkpt lat="47.28828" lon="4.9665">
        <ele>428</ele>
        <time>2012-10-05T09:48:42Z</time>
      </trkpt>
      <trkpt lat="47.28843" lon="4.96658">
        <ele>427.6</ele>
        <time>2012-10-05T09:48:53Z</time>
      </trkpt>
      <trkpt lat="47.28852" lon="4.96675">
        <ele>427</ele>
        <time>2012-10-05T09:49:04Z</time>
      </trkpt>
      <trkpt lat="47.28863" lon="4.96678">
        <ele>426.5</ele>
        <time>2012-10-05T09:49:15Z</time>
      </trkpt>
      <trkpt lat="47.28885" lon="4.96685">
        <ele>425.2</ele>
        <time>2012-10-05T09:49:26Z</time>
      </trkpt>
      <trkpt lat="47.289" lon="4.9669">
        <ele>424.6</ele>
        <time>2012-10-05T09:49:37Z</time>
      </trkpt>
      <trkpt lat="47.28908" lon="4.9669">
        <ele>424.3</ele>
        <time>2012-10-05T09:49:48Z</time>
      </trkpt>
      <trkpt lat="47.28935" lon="4.96688">
        <ele>422.8</ele>
        <time>2012-10-05T09:49:59Z</time>
      </trkpt>
      <trkpt lat="47.28945" lon="4.96692">
        <ele>422.1</ele>
        <time>2012-10-05T09:50:10Z</time>
      </trkpt>
      <trkpt lat="47.28963" lon="4.96697">
        <ele>421.3</ele>
        <time>2012-10-05T09:50:21Z</time>
      </trkpt>
      <trkpt lat="47.28982" lon="4.96708">
        <ele>420.5</ele>
        <time>2012-10-05T09:50:32Z</time>
      </trkpt>
      <trkpt lat="47.29012" lon="4.96708">
        <ele>418.9</ele>
        <time>2012-10-05T09:50:43Z</time>
      </trkpt>
      <trkpt lat="47.29028" lon="4.96717">
        <ele>418</ele>
        <time>2012-10-05T09:50:54Z</time>
      </trkpt>
      <trkpt lat="47.29035" lon="4.96727">
        <ele>417.4</ele>
        <time>2012-10-05T09:51:05Z</time>
      </trkpt>
      <trkpt lat="47.29057" lon="4.9672">
        <ele>415.9</ele>
        <time>2012-10-05T09:51:16Z</time>
      </trkpt>
      <trkpt lat="47.29073" lon="4.96727">
        <ele>414.7</ele>
        <time>2012-10-05T09:51:27Z</time>
      </trkpt>
      <trkpt lat="47.29107" lon="4.9672">
        <ele>411.5</ele>
        <time>2012-10-05T09:51:38Z</time>
      </trkpt>
      <trkpt lat="47.29122" lon="4.96722">
        <ele>410.3</ele>
        <time>2012-10-05T09:51:49Z</time>
      </trkpt>
      <trkpt lat="47.29133" lon="4.96725">
        <ele>409.4</ele>
        <time>2012-10-05T09:52:00Z</time>
      </trkpt>
      <trkpt lat="47.2914" lon="4.96725">
        <ele>408.8</ele>
        <time>2012-10-05T09:52:11Z</time>
      </trkpt>
      <trkpt lat="47.29143" lon="4.96725">
        <ele>408.3</ele>
        <time>2012-10-05T09:52:22Z</time>
      </trkpt>
      <trkpt lat="47.29143" lon="4.96725">
        <ele>408.3</ele>
        <time>2012-10-05T09:52:33Z</time>
      </trkpt>
      <trkpt lat="47.29148" lon="4.96727">
        <ele>407.6</ele>
        <time>2012-10-05T09:52:44Z</time>
      </trkpt>
      <trkpt lat="47.2916" lon="4.9673">
        <ele>405.7</ele>
        <time>2012-10-05T09:52:55Z</time>
      </trkpt>
      <trkpt lat="47.2916" lon="4.96732">
        <ele>405.7</ele>
        <time>2012-10-05T09:53:06Z</time>
      </trkpt>
      <trkpt lat="47.29165" lon="4.96737">
        <ele>404.8</ele>
        <time>2012-10-05T09:53:17Z</time>
      </trkpt>
      <trkpt lat="47.29165" lon="4.9674">
        <ele>404.6</ele>
        <time>2012-10-05T09:53:28Z</time>
      </trkpt>
      <trkpt lat="47.29167" lon="4.96747">
        <ele>404.1</ele>
        <time>2012-10-05T09:53:39Z</time>
      </trkpt>
      <trkpt lat="47.29172" lon="4.96757">
        <ele>401.8</ele>
        <time>2012-10-05T09:53:50Z</time>
      </trkpt>
      <trkpt lat="47.29185" lon="4.96768">
        <ele>395.6</ele>
        <time>2012-10-05T09:54:01Z</time>
      </trkpt>
      <trkpt lat="47.29197" lon="4.96782">
        <ele>390.6</ele>
        <time>2012-10-05T09:54:12Z</time>
      </trkpt>
      <trkpt lat="47.29215" lon="4.96787">
        <ele>385.5</ele>
        <time>2012-10-05T09:54:23Z</time>
      </trkpt>
      <trkpt lat="47.29213" lon="4.96805">
        <ele>383.9</ele>
        <time>2012-10-05T09:54:34Z</time>
      </trkpt>
      <trkpt lat="47.29217" lon="4.96817">
        <ele>381.5</ele>
        <time>2012-10-05T09:54:45Z</time>
      </trkpt>
      <trkpt lat="47.29215" lon="4.96838">
        <ele>381.2</ele>
        <time>2012-10-05T09:54:56Z</time>
      </trkpt>
      <trkpt lat="47.29217" lon="4.96855">
        <ele>380.4</ele>
        <time>2012-10-05T09:55:07Z</time>
      </trkpt>
      <trkpt lat="47.29223" lon="4.96867">
        <ele>377.5</ele>
        <time>2012-10-05T09:55:18Z</time>
      </trkpt>
      <trkpt lat="47.29228" lon="4.96873">
        <ele>377.3</ele>
        <time>2012-10-05T09:55:29Z</time>
      </trkpt>
      <trkpt lat="47.29232" lon="4.96882">
        <ele>376.5</ele>
        <time>2012-10-05T09:55:40Z</time>
      </trkpt>
      <trkpt lat="47.29238" lon="4.96895">
        <ele>373.1</ele>
        <time>2012-10-05T09:55:51Z</time>
      </trkpt>
      <trkpt lat="47.29243" lon="4.96903">
        <ele>369.8</ele>
        <time>2012-10-05T09:56:02Z</time>
      </trkpt>
      <trkpt lat="47.29248" lon="4.96922">
        <ele>364.9</ele>
        <time>2012-10-05T09:56:13Z</time>
      </trkpt>
      <trkpt lat="47.29248" lon="4.96938">
        <ele>364.3</ele>
        <time>2012-10-05T09:56:24Z</time>
      </trkpt>
      <trkpt lat="47.29255" lon="4.96952">
        <ele>362.2</ele>
        <time>2012-10-05T09:56:35Z</time>
      </trkpt>
      <trkpt lat="47.29258" lon="4.96965">
        <ele>360.4</ele>
        <time>2012-10-05T09:56:46Z</time>
      </trkpt>
      <trkpt lat="47.29273" lon="4.96983">
        <ele>352.8</ele>
        <time>2012-10-05T09:56:57Z</time>
      </trkpt>
      <trkpt lat="47.29287" lon="4.97002">
        <ele>372.86</ele>
        <time>2012-10-05T09:57:08Z</time>
      </trkpt>
      <trkpt lat="47.29293" lon="4.97017">
        <ele>347.1</ele>
        <time>2012-10-05T09:57:19Z</time>
      </trkpt>
      <trkpt lat="47.29295" lon="4.97037">
        <ele>343.5</ele>
        <time>2012-10-05T09:57:30Z</time>
      </trkpt>
      <trkpt lat="47.2931" lon="4.9706">
        <ele>337.5</ele>
        <time>2012-10-05T09:57:41Z</time>
      </trkpt>
      <trkpt lat="47.29313" lon="4.97072">
        <ele>335.9</ele>
        <time>2012-10-05T09:57:52Z</time>
      </trkpt>
      <trkpt lat="47.2931" lon="4.97088">
        <ele>334.3</ele>
        <time>2012-10-05T09:58:03Z</time>
      </trkpt>
      <trkpt lat="47.2931" lon="4.97092">
        <ele>334</ele>
        <time>2012-10-05T09:58:14Z</time>
      </trkpt>
      <trkpt lat="47.29308" lon="4.97103">
        <ele>333.3</ele>
        <time>2012-10-05T09:58:25Z</time>
      </trkpt>
      <trkpt lat="47.29303" lon="4.97118">
        <ele>332.3</ele>
        <time>2012-10-05T09:58:36Z</time>
      </trkpt>
      <trkpt lat="47.29292" lon="4.97138">
        <ele>331.6</ele>
        <time>2012-10-05T09:58:47Z</time>
      </trkpt>
      <trkpt lat="47.29273" lon="4.9717">
        <ele>331.2</ele>
        <time>2012-10-05T09:58:58Z</time>
      </trkpt>
      <trkpt lat="47.29267" lon="4.97177">
        <ele>331.2</ele>
        <time>2012-10-05T09:59:09Z</time>
      </trkpt>
      <trkpt lat="47.2926" lon="4.97183">
        <ele>331</ele>
        <time>2012-10-05T09:59:20Z</time>
      </trkpt>
      <trkpt lat="47.29248" lon="4.97193">
        <ele>330.4</ele>
        <time>2012-10-05T09:59:31Z</time>
      </trkpt>
      <trkpt lat="47.29238" lon="4.97203">
        <ele>330.5</ele>
        <time>2012-10-05T09:59:42Z</time>
      </trkpt>
      <trkpt lat="47.2923" lon="4.97215">
        <ele>329.3</ele>
        <time>2012-10-05T09:59:53Z</time>
      </trkpt>
      <trkpt lat="47.29223" lon="4.97228">
        <ele>327.9</ele>
        <time>2012-10-05T10:00:04Z</time>
      </trkpt>
      <trkpt lat="47.29218" lon="4.97232">
        <ele>328.1</ele>
        <time>2012-10-05T10:00:15Z</time>
      </trkpt>
      <trkpt lat="47.29207" lon="4.97245">
        <ele>374.453</ele>
        <time>2012-10-05T10:00:26Z</time>
      </trkpt>
      <trkpt lat="47.29195" lon="4.9726">
        <ele>327.1</ele>
        <time>2012-10-05T10:00:37Z</time>
      </trkpt>
      <trkpt lat="47.2919" lon="4.97268">
        <ele>327.3</ele>
        <time>2012-10-05T10:00:48Z</time>
      </trkpt>
      <trkpt lat="47.29183" lon="4.9728">
        <ele>327.3</ele>
        <time>2012-10-05T10:00:59Z</time>
      </trkpt>
      <trkpt lat="47.29178" lon="4.97285">
        <ele>327.5</ele>
        <time>2012-10-05T10:01:10Z</time>
      </trkpt>
      <trkpt lat="47.29175" lon="4.97298">
        <ele>327.5</ele>
        <time>2012-10-05T10:01:21Z</time>
      </trkpt>
      <trkpt lat="47.29162" lon="4.9733">
        <ele>328.5</ele>
        <time>2012-10-05T10:01:32Z</time>
      </trkpt>
      <trkpt lat="47.2915" lon="4.97347">
        <ele>328</ele>
        <time>2012-10-05T10:01:43Z</time>
      </trkpt>
      <trkpt lat="47.29143" lon="4.97363">
        <ele>327.4</ele>
        <time>2012-10-05T10:01:54Z</time>
      </trkpt>
      <trkpt lat="47.29137" lon="4.97378">
        <ele>328.3</ele>
        <time>2012-10-05T10:02:05Z</time>
      </trkpt>
      <trkpt lat="47.29132" lon="4.97385">
        <ele>328.2</ele>
        <time>2012-10-05T10:02:16Z</time>
      </trkpt>
      <trkpt lat="47.29123" lon="4.974">
        <ele>327.9</ele>
        <time>2012-10-05T10:02:27Z</time>
      </trkpt>
      <trkpt lat="47.29108" lon="4.9743">
        <ele>327.3</ele>
        <time>2012-10-05T10:02:38Z</time>
      </trkpt>
      <trkpt lat="47.29108" lon="4.97435">
        <ele>328.3</ele>
        <time>2012-10-05T10:02:49Z</time>
      </trkpt>
      <trkpt lat="47.29093" lon="4.9746">
        <ele>328</ele>
        <time>2012-10-05T10:03:00Z</time>
      </trkpt>
      <trkpt lat="47.29088" lon="4.97477">
        <ele>329.5</ele>
        <time>2012-10-05T10:03:11Z</time>
      </trkpt>
      <trkpt lat="47.2908" lon="4.97498">
        <ele>331.9</ele>
        <time>2012-10-05T10:03:22Z</time>
      </trkpt>
      <trkpt lat="47.29072" lon="4.97522">
        <ele>365.165</ele>
        <time>2012-10-05T10:03:33Z</time>
      </trkpt>
      <trkpt lat="47.29063" lon="4.97537">
        <ele>324.5</ele>
        <time>2012-10-05T10:03:44Z</time>
      </trkpt>
      <trkpt lat="47.29048" lon="4.9758">
        <ele>322.8</ele>
        <time>2012-10-05T10:03:55Z</time>
      </trkpt>
      <trkpt lat="47.29035" lon="4.97613">
        <ele>324.2</ele>
        <time>2012-10-05T10:04:06Z</time>
      </trkpt>
      <trkpt lat="47.29023" lon="4.97623">
        <ele>321.7</ele>
        <time>2012-10-05T10:04:17Z</time>
      </trkpt>
      <trkpt lat="47.29" lon="4.97648">
        <ele>317</ele>
        <time>2012-10-05T10:04:28Z</time>
      </trkpt>
      <trkpt lat="47.28993" lon="4.97663">
        <ele>317.1</ele>
        <time>2012-10-05T10:04:39Z</time>
      </trkpt>
      <trkpt lat="47.28987" lon="4.97678">
        <ele>318.1</ele>
        <time>2012-10-05T10:04:50Z</time>
      </trkpt>
      <trkpt lat="47.28972" lon="4.97693">
        <ele>315.1</ele>
        <time>2012-10-05T10:05:01Z</time>
      </trkpt>
      <trkpt lat="47.28962" lon="4.97712">
        <ele>316.2</ele>
        <time>2012-10-05T10:05:12Z</time>
      </trkpt>
      <trkpt lat="47.28952" lon="4.97725">
        <ele>315.4</ele>
        <time>2012-10-05T10:05:23Z</time>
      </trkpt>
      <trkpt lat="47.2895" lon="4.97735">
        <ele>316.5</ele>
        <time>2012-10-05T10:05:34Z</time>
      </trkpt>
      <trkpt lat="47.28948" lon="4.97743">
        <ele>316.9</ele>
        <time>2012-10-05T10:05:45Z</time>
      </trkpt>
      <trkpt lat="47.28943" lon="4.97763">
        <ele>321</ele>
        <time>2012-10-05T10:05:56Z</time>
      </trkpt>
      <trkpt lat="47.2894" lon="4.97773">
        <ele>323.4</ele>
        <time>2012-10-05T10:06:07Z</time>
      </trkpt>
      <trkpt lat="47.28918" lon="4.9781">
        <ele>359.615</ele>
        <time>2012-10-05T10:06:18Z</time>
      </trkpt>
      <trkpt lat="47.28907" lon="4.97833">
        <ele>319.4</ele>
        <time>2012-10-05T10:06:29Z</time>
      </trkpt>
      <trkpt lat="47.28888" lon="4.9786">
        <ele>314.8</ele>
        <time>2012-10-05T10:06:40Z</time>
      </trkpt>
      <trkpt lat="47.28887" lon="4.97875">
        <ele>318</ele>
        <time>2012-10-05T10:06:51Z</time>
      </trkpt>
      <trkpt lat="47.28877" lon="4.97885">
        <ele>317.7</ele>
        <time>2012-10-05T10:07:02Z</time>
      </trkpt>
      <trkpt lat="47.28865" lon="4.97897">
        <ele>317.3</ele>
        <time>2012-10-05T10:07:13Z</time>
      </trkpt>
      <trkpt lat="47.28843" lon="4.97912">
        <ele>314.9</ele>
        <time>2012-10-05T10:07:24Z</time>
      </trkpt>
      <trkpt lat="47.28835" lon="4.97918">
        <ele>313.1</ele>
        <time>2012-10-05T10:07:35Z</time>
      </trkpt>
      <trkpt lat="47.28825" lon="4.97923">
        <ele>312.9</ele>
        <time>2012-10-05T10:07:46Z</time>
      </trkpt>
      <trkpt lat="47.28807" lon="4.9794">
        <ele>312.6</ele>
        <time>2012-10-05T10:07:57Z</time>
      </trkpt>
      <trkpt lat="47.28795" lon="4.97952">
        <ele>313.5</ele>
        <time>2012-10-05T10:08:08Z</time>
      </trkpt>
      <trkpt lat="47.28795" lon="4.97967">
        <ele>317.8</ele>
        <time>2012-10-05T10:08:19Z</time>
      </trkpt>
      <trkpt lat="47.28775" lon="4.97987">
        <ele>318.9</ele>
        <time>2012-10-05T10:08:30Z</time>
      </trkpt>
      <trkpt lat="47.28757" lon="4.98">
        <ele>377.655</ele>
        <time>2012-10-05T10:08:41Z</time>
      </trkpt>
      <trkpt lat="47.2873" lon="4.9802">
        <ele>316.9</ele>
        <time>2012-10-05T10:08:52Z</time>
      </trkpt>
      <trkpt lat="47.28692" lon="4.98043">
        <ele>312.7</ele>
        <time>2012-10-05T10:09:03Z</time>
      </trkpt>
      <trkpt lat="47.28682" lon="4.98053">
        <ele>377.6</ele>
        <time>2012-10-05T10:09:14Z</time>
      </trkpt>
      <trkpt lat="47.2867" lon="4.98065">
        <ele>380.892</ele>
        <time>2012-10-05T10:09:25Z</time>
      </trkpt>
      <trkpt lat="47.28648" lon="4.98075">
        <ele>308.1</ele>
        <time>2012-10-05T10:09:36Z</time>
      </trkpt>
      <trkpt lat="47.2863" lon="4.98078">
        <ele>305.9</ele>
        <time>2012-10-05T10:09:47Z</time>
      </trkpt>
      <trkpt lat="47.28612" lon="4.98093">
        <ele>304.8</ele>
        <time>2012-10-05T10:09:58Z</time>
      </trkpt>
      <trkpt lat="47.28623" lon="4.981">
        <ele>307.6</ele>
        <time>2012-10-05T10:10:09Z</time>
      </trkpt>
      <trkpt lat="47.28608" lon="4.98098">
        <ele>305</ele>
        <time>2012-10-05T10:10:20Z</time>
      </trkpt>
      <trkpt lat="47.28607" lon="4.9811">
        <ele>305.6</ele>
        <time>2012-10-05T10:10:31Z</time>
      </trkpt>
      <trkpt lat="47.28592" lon="4.98128">
        <ele>373.309</ele>
        <time>2012-10-05T10:10:42Z</time>
      </trkpt>
      <trkpt lat="47.28563" lon="4.98155">
        <ele>305</ele>
        <time>2012-10-05T10:10:53Z</time>
      </trkpt>
      <trkpt lat="47.28543" lon="4.9817">
        <ele>364.622</ele>
        <time>2012-10-05T10:11:04Z</time>
      </trkpt>
      <trkpt lat="47.28527" lon="4.98183">
        <ele>303.7</ele>
        <time>2012-10-05T10:11:15Z</time>
      </trkpt>
      <trkpt lat="47.28507" lon="4.98192">
        <ele>362.159</ele>
        <time>2012-10-05T10:11:26Z</time>
      </trkpt>
      <trkpt lat="47.28482" lon="4.98208">
        <ele>302.5</ele>
        <time>2012-10-05T10:11:37Z</time>
      </trkpt>
      <trkpt lat="47.28473" lon="4.98222">
        <ele>357.262</ele>
        <time>2012-10-05T10:11:48Z</time>
      </trkpt>
      <trkpt lat="47.28462" lon="4.98217">
        <ele>301.2</ele>
        <time>2012-10-05T10:11:59Z</time>
      </trkpt>
      <trkpt lat="47.2844" lon="4.98243">
        <ele>327.255</ele>
        <time>2012-10-05T10:12:10Z</time>
      </trkpt>
      <trkpt lat="47.28422" lon="4.9827">
        <ele>322.978</ele>
        <time>2012-10-05T10:12:21Z</time>
      </trkpt>
      <trkpt lat="47.28417" lon="4.98278">
        <ele>320.338</ele>
        <time>2012-10-05T10:12:32Z</time>
      </trkpt>
      <trkpt lat="47.28402" lon="4.98297">
        <ele>298.9</ele>
        <time>2012-10-05T10:12:43Z</time>
      </trkpt>
      <trkpt lat="47.28385" lon="4.98308">
        <ele>322.196</ele>
        <time>2012-10-05T10:12:54Z</time>
      </trkpt>
      <trkpt lat="47.28372" lon="4.98317">
        <ele>320.521</ele>
        <time>2012-10-05T10:13:05Z</time>
      </trkpt>
      <trkpt lat="47.28358" lon="4.9833">
        <ele>319.815</ele>
        <time>2012-10-05T10:13:16Z</time>
      </trkpt>
      <trkpt lat="47.2834" lon="4.98348">
        <ele>317.532</ele>
        <time>2012-10-05T10:13:27Z</time>
      </trkpt>
      <trkpt lat="47.28322" lon="4.98363">
        <ele>318.522</ele>
        <time>2012-10-05T10:13:38Z</time>
      </trkpt>
      <trkpt lat="47.28308" lon="4.98377">
        <ele>317.509</ele>
        <time>2012-10-05T10:13:49Z</time>
      </trkpt>
      <trkpt lat="47.28298" lon="4.98387">
        <ele>317.531</ele>
        <time>2012-10-05T10:14:00Z</time>
      </trkpt>
      <trkpt lat="47.2829" lon="4.98398">
        <ele>318.238</ele>
        <time>2012-10-05T10:14:11Z</time>
      </trkpt>
      <trkpt lat="47.28287" lon="4.98425">
        <ele>312.77</ele>
        <time>2012-10-05T10:14:22Z</time>
      </trkpt>
      <trkpt lat="47.28285" lon="4.98447">
        <ele>308.57</ele>
        <time>2012-10-05T10:14:33Z</time>
      </trkpt>
      <trkpt lat="47.28283" lon="4.9846">
        <ele>306.803</ele>
        <time>2012-10-05T10:14:44Z</time>
      </trkpt>
      <trkpt lat="47.28272" lon="4.98483">
        <ele>303.713</ele>
        <time>2012-10-05T10:14:55Z</time>
      </trkpt>
      <trkpt lat="47.2826" lon="4.98502">
        <ele>302.524</ele>
        <time>2012-10-05T10:15:06Z</time>
      </trkpt>
      <trkpt lat="47.28247" lon="4.9852">
        <ele>296.4</ele>
        <time>2012-10-05T10:15:17Z</time>
      </trkpt>
      <trkpt lat="47.28242" lon="4.98528">
        <ele>302.507</ele>
        <time>2012-10-05T10:15:28Z</time>
      </trkpt>
      <trkpt lat="47.2823" lon="4.98545">
        <ele>300.45</ele>
        <time>2012-10-05T10:15:39Z</time>
      </trkpt>
      <trkpt lat="47.2822" lon="4.9856">
        <ele>300.549</ele>
        <time>2012-10-05T10:15:50Z</time>
      </trkpt>
      <trkpt lat="47.28215" lon="4.98568">
        <ele>298.789</ele>
        <time>2012-10-05T10:16:01Z</time>
      </trkpt>
      <trkpt lat="47.2821" lon="4.98583">
        <ele>297.686</ele>
        <time>2012-10-05T10:16:12Z</time>
      </trkpt>
      <trkpt lat="47.28213" lon="4.98612">
        <ele>297.477</ele>
        <time>2012-10-05T10:16:23Z</time>
      </trkpt>
      <trkpt lat="47.2822" lon="4.98635">
        <ele>297.312</ele>
        <time>2012-10-05T10:16:34Z</time>
      </trkpt>
      <trkpt lat="47.28223" lon="4.9866">
        <ele>297.489</ele>
        <time>2012-10-05T10:16:45Z</time>
      </trkpt>
      <trkpt lat="47.28228" lon="4.98685">
        <ele>298.577</ele>
        <time>2012-10-05T10:16:56Z</time>
      </trkpt>
      <trkpt lat="47.28238" lon="4.98703">
        <ele>299</ele>
        <time>2012-10-05T10:17:07Z</time>
      </trkpt>
      <trkpt lat="47.28247" lon="4.98722">
        <ele>297.218</ele>
        <time>2012-10-05T10:17:18Z</time>
      </trkpt>
      <trkpt lat="47.28258" lon="4.98737">
        <ele>296.056</ele>
        <time>2012-10-05T10:17:29Z</time>
      </trkpt>
      <trkpt lat="47.2827" lon="4.98753">
        <ele>295.826</ele>
        <time>2012-10-05T10:17:40Z</time>
      </trkpt>
      <trkpt lat="47.28277" lon="4.9877">
        <ele>296.543</ele>
        <time>2012-10-05T10:17:51Z</time>
      </trkpt>
      <trkpt lat="47.28287" lon="4.98792">
        <ele>296.263</ele>
        <time>2012-10-05T10:18:02Z</time>
      </trkpt>
      <trkpt lat="47.28288" lon="4.98807">
        <ele>297.498</ele>
        <time>2012-10-05T10:18:13Z</time>
      </trkpt>
      <trkpt lat="47.28295" lon="4.98832">
        <ele>298.278</ele>
        <time>2012-10-05T10:18:24Z</time>
      </trkpt>
      <trkpt lat="47.28303" lon="4.98852">
        <ele>298.168</ele>
        <time>2012-10-05T10:18:35Z</time>
      </trkpt>
      <trkpt lat="47.28308" lon="4.98868">
        <ele>300.241</ele>
        <time>2012-10-05T10:18:46Z</time>
      </trkpt>
      <trkpt lat="47.28315" lon="4.98892">
        <ele>297.845</ele>
        <time>2012-10-05T10:18:57Z</time>
      </trkpt>
      <trkpt lat="47.28318" lon="4.98913">
        <ele>297.34</ele>
        <time>2012-10-05T10:19:08Z</time>
      </trkpt>
      <trkpt lat="47.28328" lon="4.98928">
        <ele>297.652</ele>
        <time>2012-10-05T10:19:19Z</time>
      </trkpt>
      <trkpt lat="47.28338" lon="4.98942">
        <ele>297.585</ele>
        <time>2012-10-05T10:19:30Z</time>
      </trkpt>
      <trkpt lat="47.28333" lon="4.98975">
        <ele>296.57</ele>
        <time>2012-10-05T10:19:41Z</time>
      </trkpt>
      <trkpt lat="47.28337" lon="4.98993">
        <ele>297.077</ele>
        <time>2012-10-05T10:19:52Z</time>
      </trkpt>
      <trkpt lat="47.28348" lon="4.99005">
        <ele>296.949</ele>
        <time>2012-10-05T10:20:03Z</time>
      </trkpt>
      <trkpt lat="47.28348" lon="4.99033">
        <ele>298.305</ele>
        <time>2012-10-05T10:20:14Z</time>
      </trkpt>
      <trkpt lat="47.28348" lon="4.99058">
        <ele>298.962</ele>
        <time>2012-10-05T10:20:25Z</time>
      </trkpt>
      <trkpt lat="47.28353" lon="4.99082">
        <ele>298.003</ele>
        <time>2012-10-05T10:20:36Z</time>
      </trkpt>
      <trkpt lat="47.28347" lon="4.99102">
        <ele>296.249</ele>
        <time>2012-10-05T10:20:47Z</time>
      </trkpt>
      <trkpt lat="47.28328" lon="4.99123">
        <ele>296.304</ele>
        <time>2012-10-05T10:20:58Z</time>
      </trkpt>
      <trkpt lat="47.28325" lon="4.99132">
        <ele>294.039</ele>
        <time>2012-10-05T10:21:09Z</time>
      </trkpt>
      <trkpt lat="47.2832" lon="4.99148">
        <ele>293.164</ele>
        <time>2012-10-05T10:21:20Z</time>
      </trkpt>
      <trkpt lat="47.28322" lon="4.99173">
        <ele>292.79</ele>
        <time>2012-10-05T10:21:31Z</time>
      </trkpt>
      <trkpt lat="47.28318" lon="4.99198">
        <ele>291.83</ele>
        <time>2012-10-05T10:21:42Z</time>
      </trkpt>
      <trkpt lat="47.28315" lon="4.99207">
        <ele>290.656</ele>
        <time>2012-10-05T10:21:53Z</time>
      </trkpt>
      <trkpt lat="47.28308" lon="4.99222">
        <ele>289.107</ele>
        <time>2012-10-05T10:22:04Z</time>
      </trkpt>
      <trkpt lat="47.283" lon="4.99247">
        <ele>286.68</ele>
        <time>2012-10-05T10:22:15Z</time>
      </trkpt>
      <trkpt lat="47.28307" lon="4.99272">
        <ele>285.723</ele>
        <time>2012-10-05T10:22:26Z</time>
      </trkpt>
      <trkpt lat="47.28313" lon="4.9929">
        <ele>285.448</ele>
        <time>2012-10-05T10:22:37Z</time>
      </trkpt>
      <trkpt lat="47.28322" lon="4.9931">
        <ele>283.906</ele>
        <time>2012-10-05T10:22:48Z</time>
      </trkpt>
      <trkpt lat="47.28332" lon="4.99328">
        <ele>282.766</ele>
        <time>2012-10-05T10:22:59Z</time>
      </trkpt>
      <trkpt lat="47.28342" lon="4.99347">
        <ele>282.288</ele>
        <time>2012-10-05T10:23:10Z</time>
      </trkpt>
      <trkpt lat="47.28352" lon="4.99362">
        <ele>280.298</ele>
        <time>2012-10-05T10:23:21Z</time>
      </trkpt>
      <trkpt lat="47.28363" lon="4.99378">
        <ele>280.095</ele>
        <time>2012-10-05T10:23:32Z</time>
      </trkpt>
      <trkpt lat="47.28375" lon="4.99393">
        <ele>279.859</ele>
        <time>2012-10-05T10:23:43Z</time>
      </trkpt>
      <trkpt lat="47.28387" lon="4.99407">
        <ele>279.812</ele>
        <time>2012-10-05T10:23:54Z</time>
      </trkpt>
      <trkpt lat="47.28398" lon="4.99423">
        <ele>278.251</ele>
        <time>2012-10-05T10:24:05Z</time>
      </trkpt>
      <trkpt lat="47.28408" lon="4.99437">
        <ele>277.197</ele>
        <time>2012-10-05T10:24:16Z</time>
      </trkpt>
      <trkpt lat="47.2842" lon="4.99452">
        <ele>278.519</ele>
        <time>2012-10-05T10:24:27Z</time>
      </trkpt>
      <trkpt lat="47.28432" lon="4.99468">
        <ele>277.007</ele>
        <time>2012-10-05T10:24:38Z</time>
      </trkpt>
      <trkpt lat="47.28445" lon="4.99483">
        <ele>276.32</ele>
        <time>2012-10-05T10:24:49Z</time>
      </trkpt>
      <trkpt lat="47.28455" lon="4.995">
        <ele>276.917</ele>
        <time>2012-10-05T10:25:00Z</time>
      </trkpt>
      <trkpt lat="47.28465" lon="4.99518">
        <ele>276.171</ele>
        <time>2012-10-05T10:25:11Z</time>
      </trkpt>
      <trkpt lat="47.28472" lon="4.99533">
        <ele>276.181</ele>
        <time>2012-10-05T10:25:22Z</time>
      </trkpt>
      <trkpt lat="47.28482" lon="4.99555">
        <ele>275.192</ele>
        <time>2012-10-05T10:25:33Z</time>
      </trkpt>
      <trkpt lat="47.28492" lon="4.99572">
        <ele>273.969</ele>
        <time>2012-10-05T10:25:44Z</time>
      </trkpt>
      <trkpt lat="47.28503" lon="4.99588">
        <ele>274.334</ele>
        <time>2012-10-05T10:25:55Z</time>
      </trkpt>
      <trkpt lat="47.28517" lon="4.99602">
        <ele>274.948</ele>
        <time>2012-10-05T10:26:06Z</time>
      </trkpt>
      <trkpt lat="47.2853" lon="4.99613">
        <ele>275.509</ele>
        <time>2012-10-05T10:26:17Z</time>
      </trkpt>
      <trkpt lat="47.28542" lon="4.99622">
        <ele>276.78</ele>
        <time>2012-10-05T10:26:28Z</time>
      </trkpt>
      <trkpt lat="47.28545" lon="4.99633">
        <ele>278.738</ele>
        <time>2012-10-05T10:26:39Z</time>
      </trkpt>
      <trkpt lat="47.28548" lon="4.99657">
        <ele>278.651</ele>
        <time>2012-10-05T10:26:50Z</time>
      </trkpt>
      <trkpt lat="47.28563" lon="4.9967">
        <ele>279.415</ele>
        <time>2012-10-05T10:27:01Z</time>
      </trkpt>
      <trkpt lat="47.28575" lon="4.99678">
        <ele>280.508</ele>
        <time>2012-10-05T10:27:12Z</time>
      </trkpt>
      <trkpt lat="47.28588" lon="4.99687">
        <ele>280.582</ele>
        <time>2012-10-05T10:27:23Z</time>
      </trkpt>
      <trkpt lat="47.28602" lon="4.99697">
        <ele>279.095</ele>
        <time>2012-10-05T10:27:34Z</time>
      </trkpt>
      <trkpt lat="47.28618" lon="4.99707">
        <ele>278.867</ele>
        <time>2012-10-05T10:27:45Z</time>
      </trkpt>
      <trkpt lat="47.28632" lon="4.99717">
        <ele>279.476</ele>
        <time>2012-10-05T10:27:56Z</time>
      </trkpt>
      <trkpt lat="47.28647" lon="4.99727">
        <ele>280.149</ele>
        <time>2012-10-05T10:28:07Z</time>
      </trkpt>
      <trkpt lat="47.28662" lon="4.99738">
        <ele>282.064</ele>
        <time>2012-10-05T10:28:18Z</time>
      </trkpt>
      <trkpt lat="47.28677" lon="4.99748">
        <ele>282.803</ele>
        <time>2012-10-05T10:28:29Z</time>
      </trkpt>
      <trkpt lat="47.2869" lon="4.99762">
        <ele>284.076</ele>
        <time>2012-10-05T10:28:40Z</time>
      </trkpt>
      <trkpt lat="47.28703" lon="4.99773">
        <ele>284.306</ele>
        <time>2012-10-05T10:28:51Z</time>
      </trkpt>
      <trkpt lat="47.28715" lon="4.99785">
        <ele>284.814</ele>
        <time>2012-10-05T10:29:02Z</time>
      </trkpt>
      <trkpt lat="47.28728" lon="4.99797">
        <ele>284.285</ele>
        <time>2012-10-05T10:29:13Z</time>
      </trkpt>
      <trkpt lat="47.28742" lon="4.99803">
        <ele>284.103</ele>
        <time>2012-10-05T10:29:24Z</time>
      </trkpt>
      <trkpt lat="47.28758" lon="4.99812">
        <ele>284.657</ele>
        <time>2012-10-05T10:29:35Z</time>
      </trkpt>
      <trkpt lat="47.28772" lon="4.99822">
        <ele>284.085</ele>
        <time>2012-10-05T10:29:46Z</time>
      </trkpt>
      <trkpt lat="47.28783" lon="4.99832">
        <ele>282.178</ele>
        <time>2012-10-05T10:29:57Z</time>
      </trkpt>
      <trkpt lat="47.28797" lon="4.9984">
        <ele>282.214</ele>
        <time>2012-10-05T10:30:08Z</time>
      </trkpt>
      <trkpt lat="47.2881" lon="4.99847">
        <ele>281.458</ele>
        <time>2012-10-05T10:30:19Z</time>
      </trkpt>
      <trkpt lat="47.28827" lon="4.99855">
        <ele>281.446</ele>
        <time>2012-10-05T10:30:30Z</time>
      </trkpt>
      <trkpt lat="47.28845" lon="4.9986">
        <ele>281.596</ele>
        <time>2012-10-05T10:30:41Z</time>
      </trkpt>
      <trkpt lat="47.28857" lon="4.99868">
        <ele>282.257</ele>
        <time>2012-10-05T10:30:52Z</time>
      </trkpt>
      <trkpt lat="47.28872" lon="4.99875">
        <ele>283.439</ele>
        <time>2012-10-05T10:31:03Z</time>
      </trkpt>
      <trkpt lat="47.28883" lon="4.99882">
        <ele>282.713</ele>
        <time>2012-10-05T10:31:14Z</time>
      </trkpt>
      <trkpt lat="47.28903" lon="4.99885">
        <ele>281.802</ele>
        <time>2012-10-05T10:31:25Z</time>
      </trkpt>
      <trkpt lat="47.28918" lon="4.9989">
        <ele>280.124</ele>
        <time>2012-10-05T10:31:36Z</time>
      </trkpt>
      <trkpt lat="47.28932" lon="4.99893">
        <ele>279.102</ele>
        <time>2012-10-05T10:31:47Z</time>
      </trkpt>
      <trkpt lat="47.2895" lon="4.99898">
        <ele>276.555</ele>
        <time>2012-10-05T10:31:58Z</time>
      </trkpt>
      <trkpt lat="47.28965" lon="4.99905">
        <ele>276.131</ele>
        <time>2012-10-05T10:32:09Z</time>
      </trkpt>
      <trkpt lat="47.28978" lon="4.99915">
        <ele>276.996</ele>
        <time>2012-10-05T10:32:20Z</time>
      </trkpt>
      <trkpt lat="47.2899" lon="4.99928">
        <ele>278.518</ele>
        <time>2012-10-05T10:32:31Z</time>
      </trkpt>
      <trkpt lat="47.29005" lon="4.99937">
        <ele>277.56</ele>
        <time>2012-10-05T10:32:42Z</time>
      </trkpt>
      <trkpt lat="47.2902" lon="4.9995">
        <ele>278.102</ele>
        <time>2012-10-05T10:32:53Z</time>
      </trkpt>
      <trkpt lat="47.29033" lon="4.99962">
        <ele>279.28</ele>
        <time>2012-10-05T10:33:04Z</time>
      </trkpt>
      <trkpt lat="47.29047" lon="4.99973">
        <ele>279.112</ele>
        <time>2012-10-05T10:33:15Z</time>
      </trkpt>
      <trkpt lat="47.2906" lon="4.9998">
        <ele>278.427</ele>
        <time>2012-10-05T10:33:26Z</time>
      </trkpt>
      <trkpt lat="47.29075" lon="4.99987">
        <ele>277.325</ele>
        <time>2012-10-05T10:33:37Z</time>
      </trkpt>
      <trkpt lat="47.29078" lon="5.00002">
        <ele>277.079</ele>
        <time>2012-10-05T10:33:48Z</time>
      </trkpt>
      <trkpt lat="47.29077" lon="5.00015">
        <ele>276.951</ele>
        <time>2012-10-05T10:33:59Z</time>
      </trkpt>
      <trkpt lat="47.29075" lon="5.00028">
        <ele>276.08</ele>
        <time>2012-10-05T10:34:10Z</time>
      </trkpt>
      <trkpt lat="47.2907" lon="5.00053">
        <ele>276.336</ele>
        <time>2012-10-05T10:34:21Z</time>
      </trkpt>
      <trkpt lat="47.29067" lon="5.00075">
        <ele>276.873</ele>
        <time>2012-10-05T10:34:32Z</time>
      </trkpt>
      <trkpt lat="47.29065" lon="5.0009">
        <ele>273.829</ele>
        <time>2012-10-05T10:34:43Z</time>
      </trkpt>
      <trkpt lat="47.29062" lon="5.00105">
        <ele>273.06</ele>
        <time>2012-10-05T10:34:54Z</time>
      </trkpt>
      <trkpt lat="47.29057" lon="5.0012">
        <ele>271.183</ele>
        <time>2012-10-05T10:35:05Z</time>
      </trkpt>
      <trkpt lat="47.29062" lon="5.00132">
        <ele>272.883</ele>
        <time>2012-10-05T10:35:16Z</time>
      </trkpt>
      <trkpt lat="47.29075" lon="5.00143">
        <ele>274.221</ele>
        <time>2012-10-05T10:35:27Z</time>
      </trkpt>
      <trkpt lat="47.29088" lon="5.00153">
        <ele>277.074</ele>
        <time>2012-10-05T10:35:38Z</time>
      </trkpt>
      <trkpt lat="47.29102" lon="5.00155">
        <ele>277.471</ele>
        <time>2012-10-05T10:35:49Z</time>
      </trkpt>
      <trkpt lat="47.29115" lon="5.00168">
        <ele>279.762</ele>
        <time>2012-10-05T10:36:00Z</time>
      </trkpt>
      <trkpt lat="47.29125" lon="5.00178">
        <ele>282.895</ele>
        <time>2012-10-05T10:36:11Z</time>
      </trkpt>
      <trkpt lat="47.29137" lon="5.00188">
        <ele>283.471</ele>
        <time>2012-10-05T10:36:22Z</time>
      </trkpt>
      <trkpt lat="47.29152" lon="5.00175">
        <ele>283.154</ele>
        <time>2012-10-05T10:36:33Z</time>
      </trkpt>
      <trkpt lat="47.2915" lon="5.0019">
        <ele>281.137</ele>
        <time>2012-10-05T10:36:44Z</time>
      </trkpt>
      <trkpt lat="47.29143" lon="5.00215">
        <ele>281.786</ele>
        <time>2012-10-05T10:36:55Z</time>
      </trkpt>
      <trkpt lat="47.29142" lon="5.00235">
        <ele>282.918</ele>
        <time>2012-10-05T10:37:06Z</time>
      </trkpt>
      <trkpt lat="47.29138" lon="5.00258">
        <ele>287.337</ele>
        <time>2012-10-05T10:37:17Z</time>
      </trkpt>
      <trkpt lat="47.29138" lon="5.0028">
        <ele>287.189</ele>
        <time>2012-10-05T10:37:28Z</time>
      </trkpt>
      <trkpt lat="47.2914" lon="5.00273">
        <ele>285.746</ele>
        <time>2012-10-05T10:37:39Z</time>
      </trkpt>
      <trkpt lat="47.29147" lon="5.00295">
        <ele>289.165</ele>
        <time>2012-10-05T10:37:50Z</time>
      </trkpt>
      <trkpt lat="47.2916" lon="5.00308">
        <ele>295.661</ele>
        <time>2012-10-05T10:38:01Z</time>
      </trkpt>
      <trkpt lat="47.29172" lon="5.00332">
        <ele>294.953</ele>
        <time>2012-10-05T10:38:12Z</time>
      </trkpt>
      <trkpt lat="47.29183" lon="5.00335">
        <ele>296.178</ele>
        <time>2012-10-05T10:38:23Z</time>
      </trkpt>
      <trkpt lat="47.29193" lon="5.00322">
        <ele>295.741</ele>
        <time>2012-10-05T10:38:34Z</time>
      </trkpt>
      <trkpt lat="47.292" lon="5.00348">
        <ele>296.595</ele>
        <time>2012-10-05T10:38:45Z</time>
      </trkpt>
      <trkpt lat="47.29202" lon="5.00383">
        <ele>297.824</ele>
        <time>2012-10-05T10:38:56Z</time>
      </trkpt>
      <trkpt lat="47.2919" lon="5.00397">
        <ele>306.418</ele>
        <time>2012-10-05T10:39:07Z</time>
      </trkpt>
      <trkpt lat="47.29187" lon="5.0039">
        <ele>319.684</ele>
        <time>2012-10-05T10:39:18Z</time>
      </trkpt>
      <trkpt lat="47.29177" lon="5.00375">
        <ele>328.159</ele>
        <time>2012-10-05T10:39:29Z</time>
      </trkpt>
      <trkpt lat="47.2918" lon="5.00412">
        <ele>329.264</ele>
        <time>2012-10-05T10:39:40Z</time>
      </trkpt>
      <trkpt lat="47.29185" lon="5.00448">
        <ele>336.25</ele>
        <time>2012-10-05T10:39:51Z</time>
      </trkpt>
      <trkpt lat="47.292" lon="5.00435">
        <ele>332.7</ele>
        <time>2012-10-05T10:40:02Z</time>
      </trkpt>
      <trkpt lat="47.2921" lon="5.00443">
        <ele>327.223</ele>
        <time>2012-10-05T10:40:13Z</time>
      </trkpt>
      <trkpt lat="47.2922" lon="5.00447">
        <ele>314.605</ele>
        <time>2012-10-05T10:40:24Z</time>
      </trkpt>
      <trkpt lat="47.2922" lon="5.0049">
        <ele>315.208</ele>
        <time>2012-10-05T10:40:35Z</time>
      </trkpt>
      <trkpt lat="47.29217" lon="5.0054">
        <ele>318.49</ele>
        <time>2012-10-05T10:40:46Z</time>
      </trkpt>
      <trkpt lat="47.29217" lon="5.0054">
        <ele>318.787</ele>
        <time>2012-10-05T10:40:57Z</time>
      </trkpt>
      <trkpt lat="47.29218" lon="5.00545">
        <ele>318.599</ele>
        <time>2012-10-05T10:41:08Z</time>
      </trkpt>
      <trkpt lat="47.29218" lon="5.0055">
        <ele>318.241</ele>
        <time>2012-10-05T10:41:19Z</time>
      </trkpt>
      <trkpt lat="47.29218" lon="5.00552">
        <ele>318.067</ele>
        <time>2012-10-05T10:41:30Z</time>
      </trkpt>
    </trkseg>
  </trk>
</gpx>